<?xml version="1.0" encoding="UTF-8" standalone="no" ?>
<gpx xmlns="http://www.topografix.com/GPX/1/1" xmlns:xsi="http://www.w3.org/2001/XMLSchema-instance" xsi:schemaLocation="http://www.topografix.com/GPX/1/1 http://www.topografix.com/GPX/1/1/gpx.xsd" version="1.1" creator="VisuGPX - https://www.visugpx.com">
  <metadata>
    <name>randonnée les huttes de raucourt des ardennes</name>
    <desc><![CDATA[randonnéé les huttesde raucourt des ardennes















]]></desc>
  </metadata>
  <trk>
    <name><![CDATA[Tracé actuel: 03 JUIN 2018 08:19]]></name>
    <trkseg>
      <trkpt lat="49.63457" lon="4.98062">
        <ele>199.13</ele>
        <time>2018-06-03T06:19:01Z</time>
      </trkpt>
      <trkpt lat="49.63455" lon="4.98064">
        <ele>200.09</ele>
        <time>2018-06-03T06:19:26Z</time>
      </trkpt>
      <trkpt lat="49.63453" lon="4.98055">
        <ele>198.17</ele>
        <time>2018-06-03T06:19:51Z</time>
      </trkpt>
      <trkpt lat="49.63446" lon="4.98047">
        <ele>192.88</ele>
        <time>2018-06-03T06:20:14Z</time>
      </trkpt>
      <trkpt lat="49.63446" lon="4.98049">
        <ele>192.4</ele>
        <time>2018-06-03T06:20:39Z</time>
      </trkpt>
      <trkpt lat="49.63441" lon="4.98042">
        <ele>190.48</ele>
        <time>2018-06-03T06:21:01Z</time>
      </trkpt>
      <trkpt lat="49.63424" lon="4.98024">
        <ele>183.75</ele>
        <time>2018-06-03T06:21:23Z</time>
      </trkpt>
      <trkpt lat="49.63408" lon="4.98003">
        <ele>178.94</ele>
        <time>2018-06-03T06:21:42Z</time>
      </trkpt>
      <trkpt lat="49.63398" lon="4.97982">
        <ele>175.58</ele>
        <time>2018-06-03T06:22:00Z</time>
      </trkpt>
      <trkpt lat="49.63391" lon="4.97961">
        <ele>170.29</ele>
        <time>2018-06-03T06:22:18Z</time>
      </trkpt>
      <trkpt lat="49.63391" lon="4.97936">
        <ele>167.41</ele>
        <time>2018-06-03T06:22:37Z</time>
      </trkpt>
      <trkpt lat="49.63399" lon="4.97934">
        <ele>162.6</ele>
        <time>2018-06-03T06:22:49Z</time>
      </trkpt>
      <trkpt lat="49.63426" lon="4.97912">
        <ele>161.64</ele>
        <time>2018-06-03T06:23:12Z</time>
      </trkpt>
      <trkpt lat="49.63438" lon="4.97899">
        <ele>159.24</ele>
        <time>2018-06-03T06:23:30Z</time>
      </trkpt>
      <trkpt lat="49.63438" lon="4.979">
        <ele>161.16</ele>
        <time>2018-06-03T06:23:57Z</time>
      </trkpt>
      <trkpt lat="49.6344" lon="4.97898">
        <ele>162.12</ele>
        <time>2018-06-03T06:24:05Z</time>
      </trkpt>
      <trkpt lat="49.63462" lon="4.97882">
        <ele>164.52</ele>
        <time>2018-06-03T06:24:25Z</time>
      </trkpt>
      <trkpt lat="49.63465" lon="4.97874">
        <ele>164.52</ele>
        <time>2018-06-03T06:24:32Z</time>
      </trkpt>
      <trkpt lat="49.63495" lon="4.97854">
        <ele>171.73</ele>
        <time>2018-06-03T06:24:53Z</time>
      </trkpt>
      <trkpt lat="49.63501" lon="4.97829">
        <ele>168.85</ele>
        <time>2018-06-03T06:25:11Z</time>
      </trkpt>
      <trkpt lat="49.63515" lon="4.97806">
        <ele>162.12</ele>
        <time>2018-06-03T06:25:33Z</time>
      </trkpt>
      <trkpt lat="49.63531" lon="4.97791">
        <ele>155.87</ele>
        <time>2018-06-03T06:25:53Z</time>
      </trkpt>
      <trkpt lat="49.63544" lon="4.97768">
        <ele>159.72</ele>
        <time>2018-06-03T06:26:09Z</time>
      </trkpt>
      <trkpt lat="49.63551" lon="4.97746">
        <ele>161.64</ele>
        <time>2018-06-03T06:26:26Z</time>
      </trkpt>
      <trkpt lat="49.63564" lon="4.97717">
        <ele>165.48</ele>
        <time>2018-06-03T06:26:47Z</time>
      </trkpt>
      <trkpt lat="49.6358" lon="4.97696">
        <ele>169.33</ele>
        <time>2018-06-03T06:27:08Z</time>
      </trkpt>
      <trkpt lat="49.63589" lon="4.97683">
        <ele>168.85</ele>
        <time>2018-06-03T06:27:30Z</time>
      </trkpt>
      <trkpt lat="49.63606" lon="4.97657">
        <ele>166.93</ele>
        <time>2018-06-03T06:27:51Z</time>
      </trkpt>
      <trkpt lat="49.63594" lon="4.97638">
        <ele>164.52</ele>
        <time>2018-06-03T06:28:05Z</time>
      </trkpt>
      <trkpt lat="49.63591" lon="4.97636">
        <ele>164.04</ele>
        <time>2018-06-03T06:28:09Z</time>
      </trkpt>
      <trkpt lat="49.63577" lon="4.97616">
        <ele>163.08</ele>
        <time>2018-06-03T06:28:29Z</time>
      </trkpt>
      <trkpt lat="49.63564" lon="4.97597">
        <ele>164.52</ele>
        <time>2018-06-03T06:28:50Z</time>
      </trkpt>
      <trkpt lat="49.6355" lon="4.97572">
        <ele>164.04</ele>
        <time>2018-06-03T06:29:09Z</time>
      </trkpt>
      <trkpt lat="49.63546" lon="4.97566">
        <ele>163.56</ele>
        <time>2018-06-03T06:29:28Z</time>
      </trkpt>
      <trkpt lat="49.63545" lon="4.97567">
        <ele>163.56</ele>
        <time>2018-06-03T06:29:51Z</time>
      </trkpt>
      <trkpt lat="49.63545" lon="4.97567">
        <ele>163.08</ele>
        <time>2018-06-03T06:30:19Z</time>
      </trkpt>
      <trkpt lat="49.63542" lon="4.97565">
        <ele>162.6</ele>
        <time>2018-06-03T06:30:42Z</time>
      </trkpt>
      <trkpt lat="49.63528" lon="4.97538">
        <ele>159.72</ele>
        <time>2018-06-03T06:31:02Z</time>
      </trkpt>
      <trkpt lat="49.63513" lon="4.97515">
        <ele>158.27</ele>
        <time>2018-06-03T06:31:20Z</time>
      </trkpt>
      <trkpt lat="49.63502" lon="4.97494">
        <ele>158.27</ele>
        <time>2018-06-03T06:31:36Z</time>
      </trkpt>
      <trkpt lat="49.63488" lon="4.97466">
        <ele>158.27</ele>
        <time>2018-06-03T06:31:57Z</time>
      </trkpt>
      <trkpt lat="49.63475" lon="4.97443">
        <ele>158.75</ele>
        <time>2018-06-03T06:32:18Z</time>
      </trkpt>
      <trkpt lat="49.6346" lon="4.97419">
        <ele>159.24</ele>
        <time>2018-06-03T06:32:37Z</time>
      </trkpt>
      <trkpt lat="49.6345" lon="4.97399">
        <ele>158.75</ele>
        <time>2018-06-03T06:32:57Z</time>
      </trkpt>
      <trkpt lat="49.63448" lon="4.97393">
        <ele>160.2</ele>
        <time>2018-06-03T06:33:23Z</time>
      </trkpt>
      <trkpt lat="49.63434" lon="4.97371">
        <ele>158.75</ele>
        <time>2018-06-03T06:33:46Z</time>
      </trkpt>
      <trkpt lat="49.63419" lon="4.97337">
        <ele>157.79</ele>
        <time>2018-06-03T06:34:07Z</time>
      </trkpt>
      <trkpt lat="49.63408" lon="4.97306">
        <ele>158.75</ele>
        <time>2018-06-03T06:34:32Z</time>
      </trkpt>
      <trkpt lat="49.63389" lon="4.97278">
        <ele>157.79</ele>
        <time>2018-06-03T06:34:54Z</time>
      </trkpt>
      <trkpt lat="49.63372" lon="4.97251">
        <ele>159.24</ele>
        <time>2018-06-03T06:35:16Z</time>
      </trkpt>
      <trkpt lat="49.63365" lon="4.97242">
        <ele>160.68</ele>
        <time>2018-06-03T06:35:35Z</time>
      </trkpt>
      <trkpt lat="49.63353" lon="4.97209">
        <ele>160.68</ele>
        <time>2018-06-03T06:35:56Z</time>
      </trkpt>
      <trkpt lat="49.63342" lon="4.97177">
        <ele>161.64</ele>
        <time>2018-06-03T06:36:21Z</time>
      </trkpt>
      <trkpt lat="49.63334" lon="4.97143">
        <ele>161.16</ele>
        <time>2018-06-03T06:36:40Z</time>
      </trkpt>
      <trkpt lat="49.63326" lon="4.97109">
        <ele>163.08</ele>
        <time>2018-06-03T06:37:00Z</time>
      </trkpt>
      <trkpt lat="49.63318" lon="4.97082">
        <ele>163.56</ele>
        <time>2018-06-03T06:37:20Z</time>
      </trkpt>
      <trkpt lat="49.6331" lon="4.97043">
        <ele>167.41</ele>
        <time>2018-06-03T06:37:41Z</time>
      </trkpt>
      <trkpt lat="49.63304" lon="4.97009">
        <ele>166.93</ele>
        <time>2018-06-03T06:38:02Z</time>
      </trkpt>
      <trkpt lat="49.63298" lon="4.96985">
        <ele>168.37</ele>
        <time>2018-06-03T06:38:23Z</time>
      </trkpt>
      <trkpt lat="49.63295" lon="4.96974">
        <ele>168.37</ele>
        <time>2018-06-03T06:38:41Z</time>
      </trkpt>
      <trkpt lat="49.63288" lon="4.96947">
        <ele>169.81</ele>
        <time>2018-06-03T06:39:01Z</time>
      </trkpt>
      <trkpt lat="49.63279" lon="4.96913">
        <ele>169.33</ele>
        <time>2018-06-03T06:39:22Z</time>
      </trkpt>
      <trkpt lat="49.63268" lon="4.96875">
        <ele>167.41</ele>
        <time>2018-06-03T06:39:43Z</time>
      </trkpt>
      <trkpt lat="49.63255" lon="4.96851">
        <ele>165.48</ele>
        <time>2018-06-03T06:40:05Z</time>
      </trkpt>
      <trkpt lat="49.63246" lon="4.96831">
        <ele>164.04</ele>
        <time>2018-06-03T06:40:24Z</time>
      </trkpt>
      <trkpt lat="49.6324" lon="4.96819">
        <ele>163.08</ele>
        <time>2018-06-03T06:40:33Z</time>
      </trkpt>
      <trkpt lat="49.6323" lon="4.968">
        <ele>164.52</ele>
        <time>2018-06-03T06:40:51Z</time>
      </trkpt>
      <trkpt lat="49.63213" lon="4.9678">
        <ele>166.93</ele>
        <time>2018-06-03T06:41:11Z</time>
      </trkpt>
      <trkpt lat="49.63195" lon="4.96753">
        <ele>171.25</ele>
        <time>2018-06-03T06:41:32Z</time>
      </trkpt>
      <trkpt lat="49.6318" lon="4.96739">
        <ele>172.21</ele>
        <time>2018-06-03T06:41:49Z</time>
      </trkpt>
      <trkpt lat="49.63159" lon="4.96721">
        <ele>173.17</ele>
        <time>2018-06-03T06:42:09Z</time>
      </trkpt>
      <trkpt lat="49.63132" lon="4.96696">
        <ele>172.21</ele>
        <time>2018-06-03T06:42:33Z</time>
      </trkpt>
      <trkpt lat="49.63113" lon="4.96678">
        <ele>169.81</ele>
        <time>2018-06-03T06:42:55Z</time>
      </trkpt>
      <trkpt lat="49.63095" lon="4.96661">
        <ele>165.96</ele>
        <time>2018-06-03T06:43:15Z</time>
      </trkpt>
      <trkpt lat="49.63081" lon="4.96648">
        <ele>164.52</ele>
        <time>2018-06-03T06:43:34Z</time>
      </trkpt>
      <trkpt lat="49.63066" lon="4.96625">
        <ele>162.6</ele>
        <time>2018-06-03T06:43:53Z</time>
      </trkpt>
      <trkpt lat="49.6305" lon="4.96612">
        <ele>163.08</ele>
        <time>2018-06-03T06:44:11Z</time>
      </trkpt>
      <trkpt lat="49.63035" lon="4.96603">
        <ele>164.52</ele>
        <time>2018-06-03T06:44:26Z</time>
      </trkpt>
      <trkpt lat="49.63015" lon="4.96585">
        <ele>166.45</ele>
        <time>2018-06-03T06:44:47Z</time>
      </trkpt>
      <trkpt lat="49.63001" lon="4.96571">
        <ele>171.73</ele>
        <time>2018-06-03T06:45:06Z</time>
      </trkpt>
      <trkpt lat="49.62981" lon="4.96553">
        <ele>175.1</ele>
        <time>2018-06-03T06:45:27Z</time>
      </trkpt>
      <trkpt lat="49.62957" lon="4.96537">
        <ele>174.62</ele>
        <time>2018-06-03T06:45:47Z</time>
      </trkpt>
      <trkpt lat="49.62933" lon="4.96517">
        <ele>170.77</ele>
        <time>2018-06-03T06:46:07Z</time>
      </trkpt>
      <trkpt lat="49.62918" lon="4.9651">
        <ele>169.33</ele>
        <time>2018-06-03T06:46:24Z</time>
      </trkpt>
      <trkpt lat="49.62903" lon="4.96501">
        <ele>171.25</ele>
        <time>2018-06-03T06:46:41Z</time>
      </trkpt>
      <trkpt lat="49.62893" lon="4.96494">
        <ele>172.21</ele>
        <time>2018-06-03T06:46:59Z</time>
      </trkpt>
      <trkpt lat="49.62892" lon="4.96493">
        <ele>172.21</ele>
        <time>2018-06-03T06:47:00Z</time>
      </trkpt>
      <trkpt lat="49.62886" lon="4.96491">
        <ele>172.69</ele>
        <time>2018-06-03T06:47:05Z</time>
      </trkpt>
      <trkpt lat="49.6287" lon="4.96479">
        <ele>174.14</ele>
        <time>2018-06-03T06:47:22Z</time>
      </trkpt>
      <trkpt lat="49.62851" lon="4.96468">
        <ele>178.46</ele>
        <time>2018-06-03T06:47:43Z</time>
      </trkpt>
      <trkpt lat="49.62842" lon="4.96462">
        <ele>180.38</ele>
        <time>2018-06-03T06:48:01Z</time>
      </trkpt>
      <trkpt lat="49.62814" lon="4.9645">
        <ele>179.42</ele>
        <time>2018-06-03T06:48:22Z</time>
      </trkpt>
      <trkpt lat="49.62786" lon="4.96434">
        <ele>176.54</ele>
        <time>2018-06-03T06:48:43Z</time>
      </trkpt>
      <trkpt lat="49.62765" lon="4.96423">
        <ele>173.17</ele>
        <time>2018-06-03T06:49:01Z</time>
      </trkpt>
      <trkpt lat="49.62745" lon="4.9641">
        <ele>171.73</ele>
        <time>2018-06-03T06:49:18Z</time>
      </trkpt>
      <trkpt lat="49.62721" lon="4.96393">
        <ele>171.73</ele>
        <time>2018-06-03T06:49:37Z</time>
      </trkpt>
      <trkpt lat="49.62698" lon="4.96379">
        <ele>172.69</ele>
        <time>2018-06-03T06:49:55Z</time>
      </trkpt>
      <trkpt lat="49.62677" lon="4.96368">
        <ele>168.85</ele>
        <time>2018-06-03T06:50:16Z</time>
      </trkpt>
      <trkpt lat="49.62668" lon="4.96368">
        <ele>168.37</ele>
        <time>2018-06-03T06:50:33Z</time>
      </trkpt>
      <trkpt lat="49.62647" lon="4.96356">
        <ele>169.81</ele>
        <time>2018-06-03T06:50:50Z</time>
      </trkpt>
      <trkpt lat="49.62628" lon="4.96347">
        <ele>168.85</ele>
        <time>2018-06-03T06:51:07Z</time>
      </trkpt>
      <trkpt lat="49.62608" lon="4.96338">
        <ele>173.17</ele>
        <time>2018-06-03T06:51:26Z</time>
      </trkpt>
      <trkpt lat="49.62595" lon="4.9633">
        <ele>173.17</ele>
        <time>2018-06-03T06:51:40Z</time>
      </trkpt>
      <trkpt lat="49.62581" lon="4.96324">
        <ele>173.17</ele>
        <time>2018-06-03T06:51:56Z</time>
      </trkpt>
      <trkpt lat="49.62564" lon="4.96315">
        <ele>172.69</ele>
        <time>2018-06-03T06:52:12Z</time>
      </trkpt>
      <trkpt lat="49.62542" lon="4.96305">
        <ele>173.17</ele>
        <time>2018-06-03T06:52:34Z</time>
      </trkpt>
      <trkpt lat="49.62517" lon="4.96293">
        <ele>174.62</ele>
        <time>2018-06-03T06:52:54Z</time>
      </trkpt>
      <trkpt lat="49.62515" lon="4.96293">
        <ele>174.62</ele>
        <time>2018-06-03T06:52:56Z</time>
      </trkpt>
      <trkpt lat="49.62499" lon="4.96283">
        <ele>174.14</ele>
        <time>2018-06-03T06:53:12Z</time>
      </trkpt>
      <trkpt lat="49.62482" lon="4.96276">
        <ele>174.62</ele>
        <time>2018-06-03T06:53:27Z</time>
      </trkpt>
      <trkpt lat="49.62464" lon="4.96267">
        <ele>174.14</ele>
        <time>2018-06-03T06:53:44Z</time>
      </trkpt>
      <trkpt lat="49.6245" lon="4.96257">
        <ele>173.66</ele>
        <time>2018-06-03T06:54:01Z</time>
      </trkpt>
      <trkpt lat="49.62433" lon="4.9625">
        <ele>172.69</ele>
        <time>2018-06-03T06:54:16Z</time>
      </trkpt>
      <trkpt lat="49.62412" lon="4.9624">
        <ele>173.66</ele>
        <time>2018-06-03T06:54:36Z</time>
      </trkpt>
      <trkpt lat="49.62396" lon="4.96227">
        <ele>175.58</ele>
        <time>2018-06-03T06:54:53Z</time>
      </trkpt>
      <trkpt lat="49.62378" lon="4.96216">
        <ele>174.62</ele>
        <time>2018-06-03T06:55:10Z</time>
      </trkpt>
      <trkpt lat="49.62362" lon="4.9621">
        <ele>173.66</ele>
        <time>2018-06-03T06:55:25Z</time>
      </trkpt>
      <trkpt lat="49.62345" lon="4.96205">
        <ele>178.46</ele>
        <time>2018-06-03T06:55:42Z</time>
      </trkpt>
      <trkpt lat="49.62323" lon="4.962">
        <ele>179.9</ele>
        <time>2018-06-03T06:56:00Z</time>
      </trkpt>
      <trkpt lat="49.62298" lon="4.96195">
        <ele>179.9</ele>
        <time>2018-06-03T06:56:20Z</time>
      </trkpt>
      <trkpt lat="49.62292" lon="4.96198">
        <ele>177.98</ele>
        <time>2018-06-03T06:56:35Z</time>
      </trkpt>
      <trkpt lat="49.62291" lon="4.96201">
        <ele>178.46</ele>
        <time>2018-06-03T06:56:58Z</time>
      </trkpt>
      <trkpt lat="49.62291" lon="4.96201">
        <ele>177.98</ele>
        <time>2018-06-03T06:57:04Z</time>
      </trkpt>
      <trkpt lat="49.62275" lon="4.96195">
        <ele>177.02</ele>
        <time>2018-06-03T06:57:19Z</time>
      </trkpt>
      <trkpt lat="49.62257" lon="4.96189">
        <ele>175.58</ele>
        <time>2018-06-03T06:57:37Z</time>
      </trkpt>
      <trkpt lat="49.62236" lon="4.96185">
        <ele>176.06</ele>
        <time>2018-06-03T06:57:54Z</time>
      </trkpt>
      <trkpt lat="49.62219" lon="4.96179">
        <ele>178.46</ele>
        <time>2018-06-03T06:58:10Z</time>
      </trkpt>
      <trkpt lat="49.622" lon="4.96177">
        <ele>179.9</ele>
        <time>2018-06-03T06:58:27Z</time>
      </trkpt>
      <trkpt lat="49.62195" lon="4.96175">
        <ele>180.38</ele>
        <time>2018-06-03T06:58:32Z</time>
      </trkpt>
      <trkpt lat="49.6219" lon="4.96175">
        <ele>180.38</ele>
        <time>2018-06-03T06:58:37Z</time>
      </trkpt>
      <trkpt lat="49.62174" lon="4.96167">
        <ele>180.38</ele>
        <time>2018-06-03T06:58:55Z</time>
      </trkpt>
      <trkpt lat="49.62152" lon="4.96159">
        <ele>178.46</ele>
        <time>2018-06-03T06:59:14Z</time>
      </trkpt>
      <trkpt lat="49.62131" lon="4.96153">
        <ele>178.46</ele>
        <time>2018-06-03T06:59:34Z</time>
      </trkpt>
      <trkpt lat="49.62108" lon="4.96146">
        <ele>175.1</ele>
        <time>2018-06-03T06:59:53Z</time>
      </trkpt>
      <trkpt lat="49.62085" lon="4.96142">
        <ele>176.06</ele>
        <time>2018-06-03T07:00:12Z</time>
      </trkpt>
      <trkpt lat="49.62065" lon="4.96139">
        <ele>177.02</ele>
        <time>2018-06-03T07:00:32Z</time>
      </trkpt>
      <trkpt lat="49.62057" lon="4.96135">
        <ele>177.02</ele>
        <time>2018-06-03T07:00:46Z</time>
      </trkpt>
      <trkpt lat="49.62047" lon="4.96135">
        <ele>177.5</ele>
        <time>2018-06-03T07:01:01Z</time>
      </trkpt>
      <trkpt lat="49.62031" lon="4.9613">
        <ele>179.9</ele>
        <time>2018-06-03T07:01:15Z</time>
      </trkpt>
      <trkpt lat="49.62004" lon="4.96123">
        <ele>180.38</ele>
        <time>2018-06-03T07:01:36Z</time>
      </trkpt>
      <trkpt lat="49.61988" lon="4.96116">
        <ele>178.94</ele>
        <time>2018-06-03T07:01:52Z</time>
      </trkpt>
      <trkpt lat="49.61974" lon="4.96114">
        <ele>179.9</ele>
        <time>2018-06-03T07:02:08Z</time>
      </trkpt>
      <trkpt lat="49.61966" lon="4.9611">
        <ele>180.87</ele>
        <time>2018-06-03T07:02:27Z</time>
      </trkpt>
      <trkpt lat="49.61949" lon="4.96107">
        <ele>181.83</ele>
        <time>2018-06-03T07:02:42Z</time>
      </trkpt>
      <trkpt lat="49.61933" lon="4.96106">
        <ele>180.87</ele>
        <time>2018-06-03T07:02:58Z</time>
      </trkpt>
      <trkpt lat="49.6191" lon="4.961">
        <ele>177.02</ele>
        <time>2018-06-03T07:03:17Z</time>
      </trkpt>
      <trkpt lat="49.61888" lon="4.96096">
        <ele>173.66</ele>
        <time>2018-06-03T07:03:37Z</time>
      </trkpt>
      <trkpt lat="49.61869" lon="4.96094">
        <ele>172.69</ele>
        <time>2018-06-03T07:03:54Z</time>
      </trkpt>
      <trkpt lat="49.61845" lon="4.96086">
        <ele>174.62</ele>
        <time>2018-06-03T07:04:16Z</time>
      </trkpt>
      <trkpt lat="49.61825" lon="4.96077">
        <ele>177.02</ele>
        <time>2018-06-03T07:04:36Z</time>
      </trkpt>
      <trkpt lat="49.61798" lon="4.96067">
        <ele>176.06</ele>
        <time>2018-06-03T07:04:57Z</time>
      </trkpt>
      <trkpt lat="49.61771" lon="4.96058">
        <ele>174.62</ele>
        <time>2018-06-03T07:05:20Z</time>
      </trkpt>
      <trkpt lat="49.61751" lon="4.96051">
        <ele>174.14</ele>
        <time>2018-06-03T07:05:37Z</time>
      </trkpt>
      <trkpt lat="49.61729" lon="4.96047">
        <ele>175.58</ele>
        <time>2018-06-03T07:05:58Z</time>
      </trkpt>
      <trkpt lat="49.61702" lon="4.96035">
        <ele>175.58</ele>
        <time>2018-06-03T07:06:21Z</time>
      </trkpt>
      <trkpt lat="49.61678" lon="4.96028">
        <ele>174.14</ele>
        <time>2018-06-03T07:06:43Z</time>
      </trkpt>
      <trkpt lat="49.61659" lon="4.96022">
        <ele>172.69</ele>
        <time>2018-06-03T07:07:00Z</time>
      </trkpt>
      <trkpt lat="49.6164" lon="4.96016">
        <ele>175.58</ele>
        <time>2018-06-03T07:07:19Z</time>
      </trkpt>
      <trkpt lat="49.61623" lon="4.96012">
        <ele>180.38</ele>
        <time>2018-06-03T07:07:39Z</time>
      </trkpt>
      <trkpt lat="49.61606" lon="4.9601">
        <ele>187.11</ele>
        <time>2018-06-03T07:07:58Z</time>
      </trkpt>
      <trkpt lat="49.61593" lon="4.96008">
        <ele>189.52</ele>
        <time>2018-06-03T07:08:15Z</time>
      </trkpt>
      <trkpt lat="49.61571" lon="4.95998">
        <ele>194.32</ele>
        <time>2018-06-03T07:08:35Z</time>
      </trkpt>
      <trkpt lat="49.61551" lon="4.95991">
        <ele>195.28</ele>
        <time>2018-06-03T07:08:56Z</time>
      </trkpt>
      <trkpt lat="49.61532" lon="4.9598">
        <ele>197.69</ele>
        <time>2018-06-03T07:09:16Z</time>
      </trkpt>
      <trkpt lat="49.61509" lon="4.95965">
        <ele>203.46</ele>
        <time>2018-06-03T07:09:37Z</time>
      </trkpt>
      <trkpt lat="49.6149" lon="4.95953">
        <ele>201.05</ele>
        <time>2018-06-03T07:10:00Z</time>
      </trkpt>
      <trkpt lat="49.61472" lon="4.95939">
        <ele>201.05</ele>
        <time>2018-06-03T07:10:21Z</time>
      </trkpt>
      <trkpt lat="49.61455" lon="4.95916">
        <ele>198.65</ele>
        <time>2018-06-03T07:10:38Z</time>
      </trkpt>
      <trkpt lat="49.61446" lon="4.9589">
        <ele>194.8</ele>
        <time>2018-06-03T07:10:52Z</time>
      </trkpt>
      <trkpt lat="49.6143" lon="4.95866">
        <ele>192.88</ele>
        <time>2018-06-03T07:11:10Z</time>
      </trkpt>
      <trkpt lat="49.61407" lon="4.95838">
        <ele>193.84</ele>
        <time>2018-06-03T07:11:31Z</time>
      </trkpt>
      <trkpt lat="49.61392" lon="4.95819">
        <ele>191.44</ele>
        <time>2018-06-03T07:11:48Z</time>
      </trkpt>
      <trkpt lat="49.61374" lon="4.95796">
        <ele>190.48</ele>
        <time>2018-06-03T07:12:07Z</time>
      </trkpt>
      <trkpt lat="49.61365" lon="4.95781">
        <ele>190.48</ele>
        <time>2018-06-03T07:12:19Z</time>
      </trkpt>
      <trkpt lat="49.61344" lon="4.95763">
        <ele>191.92</ele>
        <time>2018-06-03T07:12:40Z</time>
      </trkpt>
      <trkpt lat="49.61326" lon="4.95742">
        <ele>191.44</ele>
        <time>2018-06-03T07:12:58Z</time>
      </trkpt>
      <trkpt lat="49.61312" lon="4.9573">
        <ele>190</ele>
        <time>2018-06-03T07:13:12Z</time>
      </trkpt>
      <trkpt lat="49.61291" lon="4.95717">
        <ele>192.88</ele>
        <time>2018-06-03T07:13:31Z</time>
      </trkpt>
      <trkpt lat="49.61271" lon="4.95696">
        <ele>194.32</ele>
        <time>2018-06-03T07:13:51Z</time>
      </trkpt>
      <trkpt lat="49.61253" lon="4.95678">
        <ele>195.28</ele>
        <time>2018-06-03T07:14:07Z</time>
      </trkpt>
      <trkpt lat="49.61239" lon="4.9567">
        <ele>196.73</ele>
        <time>2018-06-03T07:14:24Z</time>
      </trkpt>
      <trkpt lat="49.61219" lon="4.95657">
        <ele>197.21</ele>
        <time>2018-06-03T07:14:41Z</time>
      </trkpt>
      <trkpt lat="49.612" lon="4.95645">
        <ele>194.32</ele>
        <time>2018-06-03T07:14:59Z</time>
      </trkpt>
      <trkpt lat="49.61185" lon="4.95634">
        <ele>190.96</ele>
        <time>2018-06-03T07:15:17Z</time>
      </trkpt>
      <trkpt lat="49.61172" lon="4.95627">
        <ele>189.52</ele>
        <time>2018-06-03T07:15:31Z</time>
      </trkpt>
      <trkpt lat="49.6115" lon="4.95616">
        <ele>187.11</ele>
        <time>2018-06-03T07:15:49Z</time>
      </trkpt>
      <trkpt lat="49.61133" lon="4.95607">
        <ele>185.67</ele>
        <time>2018-06-03T07:16:05Z</time>
      </trkpt>
      <trkpt lat="49.61119" lon="4.95598">
        <ele>185.19</ele>
        <time>2018-06-03T07:16:21Z</time>
      </trkpt>
      <trkpt lat="49.61104" lon="4.95588">
        <ele>189.04</ele>
        <time>2018-06-03T07:16:38Z</time>
      </trkpt>
      <trkpt lat="49.61083" lon="4.95577">
        <ele>195.28</ele>
        <time>2018-06-03T07:16:59Z</time>
      </trkpt>
      <trkpt lat="49.61061" lon="4.95567">
        <ele>198.17</ele>
        <time>2018-06-03T07:17:20Z</time>
      </trkpt>
      <trkpt lat="49.61036" lon="4.95554">
        <ele>197.69</ele>
        <time>2018-06-03T07:17:40Z</time>
      </trkpt>
      <trkpt lat="49.61012" lon="4.95542">
        <ele>196.25</ele>
        <time>2018-06-03T07:17:58Z</time>
      </trkpt>
      <trkpt lat="49.60992" lon="4.95528">
        <ele>192.4</ele>
        <time>2018-06-03T07:18:17Z</time>
      </trkpt>
      <trkpt lat="49.60969" lon="4.95513">
        <ele>186.15</ele>
        <time>2018-06-03T07:18:38Z</time>
      </trkpt>
      <trkpt lat="49.60949" lon="4.95498">
        <ele>185.67</ele>
        <time>2018-06-03T07:18:59Z</time>
      </trkpt>
      <trkpt lat="49.60929" lon="4.95484">
        <ele>185.67</ele>
        <time>2018-06-03T07:19:19Z</time>
      </trkpt>
      <trkpt lat="49.60904" lon="4.95471">
        <ele>186.15</ele>
        <time>2018-06-03T07:19:39Z</time>
      </trkpt>
      <trkpt lat="49.60879" lon="4.95459">
        <ele>187.11</ele>
        <time>2018-06-03T07:20:00Z</time>
      </trkpt>
      <trkpt lat="49.60865" lon="4.95456">
        <ele>186.63</ele>
        <time>2018-06-03T07:20:15Z</time>
      </trkpt>
      <trkpt lat="49.60854" lon="4.95455">
        <ele>183.27</ele>
        <time>2018-06-03T07:20:30Z</time>
      </trkpt>
      <trkpt lat="49.60837" lon="4.95449">
        <ele>183.75</ele>
        <time>2018-06-03T07:20:48Z</time>
      </trkpt>
      <trkpt lat="49.60812" lon="4.95445">
        <ele>182.31</ele>
        <time>2018-06-03T07:21:09Z</time>
      </trkpt>
      <trkpt lat="49.60801" lon="4.95445">
        <ele>181.83</ele>
        <time>2018-06-03T07:21:20Z</time>
      </trkpt>
      <trkpt lat="49.60782" lon="4.95445">
        <ele>182.31</ele>
        <time>2018-06-03T07:21:37Z</time>
      </trkpt>
      <trkpt lat="49.60761" lon="4.95447">
        <ele>181.35</ele>
        <time>2018-06-03T07:21:55Z</time>
      </trkpt>
      <trkpt lat="49.60741" lon="4.95456">
        <ele>180.38</ele>
        <time>2018-06-03T07:22:14Z</time>
      </trkpt>
      <trkpt lat="49.60738" lon="4.95458">
        <ele>180.38</ele>
        <time>2018-06-03T07:22:17Z</time>
      </trkpt>
      <trkpt lat="49.6073" lon="4.95462">
        <ele>181.35</ele>
        <time>2018-06-03T07:22:24Z</time>
      </trkpt>
      <trkpt lat="49.60702" lon="4.95474">
        <ele>180.87</ele>
        <time>2018-06-03T07:22:47Z</time>
      </trkpt>
      <trkpt lat="49.60687" lon="4.95489">
        <ele>180.87</ele>
        <time>2018-06-03T07:23:05Z</time>
      </trkpt>
      <trkpt lat="49.60667" lon="4.955">
        <ele>184.23</ele>
        <time>2018-06-03T07:23:22Z</time>
      </trkpt>
      <trkpt lat="49.60647" lon="4.95518">
        <ele>184.23</ele>
        <time>2018-06-03T07:23:41Z</time>
      </trkpt>
      <trkpt lat="49.60639" lon="4.95528">
        <ele>184.71</ele>
        <time>2018-06-03T07:23:56Z</time>
      </trkpt>
      <trkpt lat="49.60631" lon="4.95535">
        <ele>186.15</ele>
        <time>2018-06-03T07:24:15Z</time>
      </trkpt>
      <trkpt lat="49.60613" lon="4.95552">
        <ele>184.71</ele>
        <time>2018-06-03T07:24:33Z</time>
      </trkpt>
      <trkpt lat="49.60592" lon="4.95567">
        <ele>186.63</ele>
        <time>2018-06-03T07:24:53Z</time>
      </trkpt>
      <trkpt lat="49.60576" lon="4.95577">
        <ele>189.52</ele>
        <time>2018-06-03T07:25:10Z</time>
      </trkpt>
      <trkpt lat="49.60568" lon="4.95583">
        <ele>189.52</ele>
        <time>2018-06-03T07:25:24Z</time>
      </trkpt>
      <trkpt lat="49.60555" lon="4.9559">
        <ele>188.08</ele>
        <time>2018-06-03T07:25:37Z</time>
      </trkpt>
      <trkpt lat="49.6053" lon="4.95603">
        <ele>187.59</ele>
        <time>2018-06-03T07:25:59Z</time>
      </trkpt>
      <trkpt lat="49.60512" lon="4.95614">
        <ele>186.63</ele>
        <time>2018-06-03T07:26:15Z</time>
      </trkpt>
      <trkpt lat="49.60488" lon="4.95622">
        <ele>186.63</ele>
        <time>2018-06-03T07:26:33Z</time>
      </trkpt>
      <trkpt lat="49.60469" lon="4.95638">
        <ele>186.63</ele>
        <time>2018-06-03T07:26:50Z</time>
      </trkpt>
      <trkpt lat="49.60457" lon="4.95663">
        <ele>190</ele>
        <time>2018-06-03T07:27:07Z</time>
      </trkpt>
      <trkpt lat="49.6045" lon="4.95681">
        <ele>192.88</ele>
        <time>2018-06-03T07:27:21Z</time>
      </trkpt>
      <trkpt lat="49.60434" lon="4.95701">
        <ele>193.36</ele>
        <time>2018-06-03T07:27:38Z</time>
      </trkpt>
      <trkpt lat="49.60417" lon="4.95711">
        <ele>193.84</ele>
        <time>2018-06-03T07:27:54Z</time>
      </trkpt>
      <trkpt lat="49.6041" lon="4.95711">
        <ele>192.88</ele>
        <time>2018-06-03T07:28:08Z</time>
      </trkpt>
      <trkpt lat="49.60404" lon="4.95709">
        <ele>191.92</ele>
        <time>2018-06-03T07:28:14Z</time>
      </trkpt>
      <trkpt lat="49.60392" lon="4.95705">
        <ele>190.96</ele>
        <time>2018-06-03T07:28:25Z</time>
      </trkpt>
      <trkpt lat="49.60371" lon="4.95694">
        <ele>190</ele>
        <time>2018-06-03T07:28:41Z</time>
      </trkpt>
      <trkpt lat="49.6035" lon="4.95677">
        <ele>190.48</ele>
        <time>2018-06-03T07:28:57Z</time>
      </trkpt>
      <trkpt lat="49.60336" lon="4.95661">
        <ele>191.44</ele>
        <time>2018-06-03T07:29:13Z</time>
      </trkpt>
      <trkpt lat="49.60331" lon="4.95656">
        <ele>191.92</ele>
        <time>2018-06-03T07:29:19Z</time>
      </trkpt>
      <trkpt lat="49.60327" lon="4.9565">
        <ele>191.92</ele>
        <time>2018-06-03T07:29:23Z</time>
      </trkpt>
      <trkpt lat="49.60307" lon="4.95633">
        <ele>195.77</ele>
        <time>2018-06-03T07:29:40Z</time>
      </trkpt>
      <trkpt lat="49.60292" lon="4.95621">
        <ele>199.13</ele>
        <time>2018-06-03T07:29:55Z</time>
      </trkpt>
      <trkpt lat="49.60275" lon="4.95605">
        <ele>200.57</ele>
        <time>2018-06-03T07:30:13Z</time>
      </trkpt>
      <trkpt lat="49.60264" lon="4.95591">
        <ele>200.09</ele>
        <time>2018-06-03T07:30:27Z</time>
      </trkpt>
      <trkpt lat="49.60243" lon="4.95585">
        <ele>200.09</ele>
        <time>2018-06-03T07:30:44Z</time>
      </trkpt>
      <trkpt lat="49.60222" lon="4.95583">
        <ele>197.21</ele>
        <time>2018-06-03T07:31:00Z</time>
      </trkpt>
      <trkpt lat="49.60218" lon="4.95581">
        <ele>196.73</ele>
        <time>2018-06-03T07:31:04Z</time>
      </trkpt>
      <trkpt lat="49.60212" lon="4.95571">
        <ele>197.21</ele>
        <time>2018-06-03T07:31:12Z</time>
      </trkpt>
      <trkpt lat="49.60193" lon="4.95569">
        <ele>199.61</ele>
        <time>2018-06-03T07:31:27Z</time>
      </trkpt>
      <trkpt lat="49.60179" lon="4.95569">
        <ele>197.69</ele>
        <time>2018-06-03T07:31:40Z</time>
      </trkpt>
      <trkpt lat="49.60163" lon="4.9557">
        <ele>193.84</ele>
        <time>2018-06-03T07:31:57Z</time>
      </trkpt>
      <trkpt lat="49.60146" lon="4.95571">
        <ele>196.25</ele>
        <time>2018-06-03T07:32:12Z</time>
      </trkpt>
      <trkpt lat="49.60127" lon="4.95571">
        <ele>199.13</ele>
        <time>2018-06-03T07:32:28Z</time>
      </trkpt>
      <trkpt lat="49.60118" lon="4.95571">
        <ele>199.13</ele>
        <time>2018-06-03T07:32:34Z</time>
      </trkpt>
      <trkpt lat="49.60105" lon="4.95564">
        <ele>194.32</ele>
        <time>2018-06-03T07:32:49Z</time>
      </trkpt>
      <trkpt lat="49.60096" lon="4.95559">
        <ele>193.36</ele>
        <time>2018-06-03T07:32:57Z</time>
      </trkpt>
      <trkpt lat="49.60078" lon="4.95547">
        <ele>191.92</ele>
        <time>2018-06-03T07:33:14Z</time>
      </trkpt>
      <trkpt lat="49.60064" lon="4.95537">
        <ele>192.4</ele>
        <time>2018-06-03T07:33:27Z</time>
      </trkpt>
      <trkpt lat="49.60044" lon="4.95519">
        <ele>194.8</ele>
        <time>2018-06-03T07:33:47Z</time>
      </trkpt>
      <trkpt lat="49.60029" lon="4.95512">
        <ele>197.69</ele>
        <time>2018-06-03T07:33:59Z</time>
      </trkpt>
      <trkpt lat="49.60025" lon="4.95509">
        <ele>198.65</ele>
        <time>2018-06-03T07:34:03Z</time>
      </trkpt>
      <trkpt lat="49.6002" lon="4.95506">
        <ele>200.09</ele>
        <time>2018-06-03T07:34:07Z</time>
      </trkpt>
      <trkpt lat="49.60014" lon="4.95502">
        <ele>201.53</ele>
        <time>2018-06-03T07:34:24Z</time>
      </trkpt>
      <trkpt lat="49.60013" lon="4.95503">
        <ele>201.05</ele>
        <time>2018-06-03T07:34:51Z</time>
      </trkpt>
      <trkpt lat="49.60012" lon="4.95503">
        <ele>202.01</ele>
        <time>2018-06-03T07:35:17Z</time>
      </trkpt>
      <trkpt lat="49.60012" lon="4.95502">
        <ele>201.53</ele>
        <time>2018-06-03T07:35:47Z</time>
      </trkpt>
      <trkpt lat="49.60012" lon="4.95505">
        <ele>201.05</ele>
        <time>2018-06-03T07:36:18Z</time>
      </trkpt>
      <trkpt lat="49.60012" lon="4.95505">
        <ele>200.09</ele>
        <time>2018-06-03T07:36:40Z</time>
      </trkpt>
      <trkpt lat="49.60004" lon="4.95502">
        <ele>200.09</ele>
        <time>2018-06-03T07:36:55Z</time>
      </trkpt>
      <trkpt lat="49.59995" lon="4.95497">
        <ele>199.61</ele>
        <time>2018-06-03T07:37:08Z</time>
      </trkpt>
      <trkpt lat="49.59979" lon="4.9549">
        <ele>199.13</ele>
        <time>2018-06-03T07:37:22Z</time>
      </trkpt>
      <trkpt lat="49.59962" lon="4.95481">
        <ele>199.61</ele>
        <time>2018-06-03T07:37:39Z</time>
      </trkpt>
      <trkpt lat="49.59945" lon="4.95467">
        <ele>199.13</ele>
        <time>2018-06-03T07:37:56Z</time>
      </trkpt>
      <trkpt lat="49.59921" lon="4.95459">
        <ele>197.21</ele>
        <time>2018-06-03T07:38:14Z</time>
      </trkpt>
      <trkpt lat="49.59904" lon="4.95461">
        <ele>195.28</ele>
        <time>2018-06-03T07:38:30Z</time>
      </trkpt>
      <trkpt lat="49.5988" lon="4.95474">
        <ele>191.92</ele>
        <time>2018-06-03T07:38:50Z</time>
      </trkpt>
      <trkpt lat="49.59862" lon="4.95477">
        <ele>188.56</ele>
        <time>2018-06-03T07:39:08Z</time>
      </trkpt>
      <trkpt lat="49.59856" lon="4.95475">
        <ele>190</ele>
        <time>2018-06-03T07:39:15Z</time>
      </trkpt>
      <trkpt lat="49.59846" lon="4.95481">
        <ele>190</ele>
        <time>2018-06-03T07:39:30Z</time>
      </trkpt>
      <trkpt lat="49.59845" lon="4.95482">
        <ele>190</ele>
        <time>2018-06-03T07:39:32Z</time>
      </trkpt>
      <trkpt lat="49.59828" lon="4.95487">
        <ele>188.56</ele>
        <time>2018-06-03T07:39:47Z</time>
      </trkpt>
      <trkpt lat="49.59804" lon="4.95491">
        <ele>188.56</ele>
        <time>2018-06-03T07:40:06Z</time>
      </trkpt>
      <trkpt lat="49.59779" lon="4.95496">
        <ele>188.08</ele>
        <time>2018-06-03T07:40:25Z</time>
      </trkpt>
      <trkpt lat="49.59761" lon="4.95497">
        <ele>189.04</ele>
        <time>2018-06-03T07:40:42Z</time>
      </trkpt>
      <trkpt lat="49.5974" lon="4.95496">
        <ele>187.59</ele>
        <time>2018-06-03T07:40:59Z</time>
      </trkpt>
      <trkpt lat="49.59723" lon="4.95496">
        <ele>191.92</ele>
        <time>2018-06-03T07:41:18Z</time>
      </trkpt>
      <trkpt lat="49.59704" lon="4.95493">
        <ele>193.36</ele>
        <time>2018-06-03T07:41:34Z</time>
      </trkpt>
      <trkpt lat="49.59688" lon="4.95491">
        <ele>194.32</ele>
        <time>2018-06-03T07:41:49Z</time>
      </trkpt>
      <trkpt lat="49.59668" lon="4.95491">
        <ele>195.77</ele>
        <time>2018-06-03T07:42:05Z</time>
      </trkpt>
      <trkpt lat="49.59641" lon="4.95488">
        <ele>197.69</ele>
        <time>2018-06-03T07:42:28Z</time>
      </trkpt>
      <trkpt lat="49.59618" lon="4.95486">
        <ele>199.13</ele>
        <time>2018-06-03T07:42:48Z</time>
      </trkpt>
      <trkpt lat="49.59592" lon="4.95485">
        <ele>198.17</ele>
        <time>2018-06-03T07:43:08Z</time>
      </trkpt>
      <trkpt lat="49.59579" lon="4.95485">
        <ele>199.61</ele>
        <time>2018-06-03T07:43:22Z</time>
      </trkpt>
      <trkpt lat="49.59559" lon="4.9549">
        <ele>200.57</ele>
        <time>2018-06-03T07:43:38Z</time>
      </trkpt>
      <trkpt lat="49.59541" lon="4.95492">
        <ele>202.01</ele>
        <time>2018-06-03T07:43:55Z</time>
      </trkpt>
      <trkpt lat="49.59517" lon="4.95498">
        <ele>202.01</ele>
        <time>2018-06-03T07:44:14Z</time>
      </trkpt>
      <trkpt lat="49.59497" lon="4.95503">
        <ele>201.05</ele>
        <time>2018-06-03T07:44:30Z</time>
      </trkpt>
      <trkpt lat="49.59473" lon="4.95504">
        <ele>199.61</ele>
        <time>2018-06-03T07:44:48Z</time>
      </trkpt>
      <trkpt lat="49.59451" lon="4.95501">
        <ele>201.05</ele>
        <time>2018-06-03T07:45:07Z</time>
      </trkpt>
      <trkpt lat="49.5943" lon="4.95489">
        <ele>202.98</ele>
        <time>2018-06-03T07:45:26Z</time>
      </trkpt>
      <trkpt lat="49.59413" lon="4.95482">
        <ele>203.46</ele>
        <time>2018-06-03T07:45:40Z</time>
      </trkpt>
      <trkpt lat="49.59408" lon="4.95478">
        <ele>203.94</ele>
        <time>2018-06-03T07:45:56Z</time>
      </trkpt>
      <trkpt lat="49.5939" lon="4.95466">
        <ele>202.49</ele>
        <time>2018-06-03T07:46:15Z</time>
      </trkpt>
      <trkpt lat="49.59373" lon="4.95454">
        <ele>202.01</ele>
        <time>2018-06-03T07:46:31Z</time>
      </trkpt>
      <trkpt lat="49.59369" lon="4.95451">
        <ele>201.53</ele>
        <time>2018-06-03T07:46:45Z</time>
      </trkpt>
      <trkpt lat="49.59358" lon="4.95442">
        <ele>202.98</ele>
        <time>2018-06-03T07:46:59Z</time>
      </trkpt>
      <trkpt lat="49.5935" lon="4.95435">
        <ele>202.49</ele>
        <time>2018-06-03T07:47:14Z</time>
      </trkpt>
      <trkpt lat="49.59332" lon="4.9542">
        <ele>199.13</ele>
        <time>2018-06-03T07:47:31Z</time>
      </trkpt>
      <trkpt lat="49.59311" lon="4.95412">
        <ele>198.65</ele>
        <time>2018-06-03T07:47:48Z</time>
      </trkpt>
      <trkpt lat="49.59288" lon="4.95408">
        <ele>198.17</ele>
        <time>2018-06-03T07:48:08Z</time>
      </trkpt>
      <trkpt lat="49.5927" lon="4.95409">
        <ele>198.17</ele>
        <time>2018-06-03T07:48:23Z</time>
      </trkpt>
      <trkpt lat="49.59265" lon="4.95409">
        <ele>198.17</ele>
        <time>2018-06-03T07:48:27Z</time>
      </trkpt>
      <trkpt lat="49.59241" lon="4.95413">
        <ele>199.13</ele>
        <time>2018-06-03T07:48:47Z</time>
      </trkpt>
      <trkpt lat="49.59225" lon="4.95415">
        <ele>198.17</ele>
        <time>2018-06-03T07:49:03Z</time>
      </trkpt>
      <trkpt lat="49.59203" lon="4.95417">
        <ele>197.69</ele>
        <time>2018-06-03T07:49:22Z</time>
      </trkpt>
      <trkpt lat="49.59182" lon="4.95419">
        <ele>197.69</ele>
        <time>2018-06-03T07:49:40Z</time>
      </trkpt>
      <trkpt lat="49.5916" lon="4.9542">
        <ele>198.17</ele>
        <time>2018-06-03T07:49:59Z</time>
      </trkpt>
      <trkpt lat="49.59143" lon="4.95421">
        <ele>198.65</ele>
        <time>2018-06-03T07:50:17Z</time>
      </trkpt>
      <trkpt lat="49.59133" lon="4.95423">
        <ele>198.65</ele>
        <time>2018-06-03T07:50:29Z</time>
      </trkpt>
      <trkpt lat="49.59113" lon="4.95423">
        <ele>200.09</ele>
        <time>2018-06-03T07:50:46Z</time>
      </trkpt>
      <trkpt lat="49.5909" lon="4.95422">
        <ele>199.61</ele>
        <time>2018-06-03T07:51:05Z</time>
      </trkpt>
      <trkpt lat="49.59062" lon="4.95421">
        <ele>201.05</ele>
        <time>2018-06-03T07:51:28Z</time>
      </trkpt>
      <trkpt lat="49.59056" lon="4.95421">
        <ele>201.05</ele>
        <time>2018-06-03T07:51:42Z</time>
      </trkpt>
      <trkpt lat="49.59051" lon="4.95421">
        <ele>201.53</ele>
        <time>2018-06-03T07:51:57Z</time>
      </trkpt>
      <trkpt lat="49.59035" lon="4.95419">
        <ele>202.98</ele>
        <time>2018-06-03T07:52:12Z</time>
      </trkpt>
      <trkpt lat="49.59017" lon="4.95418">
        <ele>204.42</ele>
        <time>2018-06-03T07:52:28Z</time>
      </trkpt>
      <trkpt lat="49.59009" lon="4.95418">
        <ele>205.38</ele>
        <time>2018-06-03T07:52:41Z</time>
      </trkpt>
      <trkpt lat="49.58989" lon="4.95414">
        <ele>207.78</ele>
        <time>2018-06-03T07:52:57Z</time>
      </trkpt>
      <trkpt lat="49.5897" lon="4.95413">
        <ele>208.74</ele>
        <time>2018-06-03T07:53:14Z</time>
      </trkpt>
      <trkpt lat="49.58956" lon="4.95411">
        <ele>210.19</ele>
        <time>2018-06-03T07:53:30Z</time>
      </trkpt>
      <trkpt lat="49.58943" lon="4.95411">
        <ele>211.15</ele>
        <time>2018-06-03T07:53:44Z</time>
      </trkpt>
      <trkpt lat="49.58935" lon="4.95411">
        <ele>211.15</ele>
        <time>2018-06-03T07:53:51Z</time>
      </trkpt>
      <trkpt lat="49.58919" lon="4.95413">
        <ele>212.11</ele>
        <time>2018-06-03T07:54:06Z</time>
      </trkpt>
      <trkpt lat="49.58901" lon="4.95415">
        <ele>214.99</ele>
        <time>2018-06-03T07:54:23Z</time>
      </trkpt>
      <trkpt lat="49.58883" lon="4.95414">
        <ele>215.47</ele>
        <time>2018-06-03T07:54:39Z</time>
      </trkpt>
      <trkpt lat="49.58864" lon="4.9541">
        <ele>217.88</ele>
        <time>2018-06-03T07:54:55Z</time>
      </trkpt>
      <trkpt lat="49.58851" lon="4.95405">
        <ele>221.24</ele>
        <time>2018-06-03T07:55:07Z</time>
      </trkpt>
      <trkpt lat="49.58837" lon="4.95394">
        <ele>226.53</ele>
        <time>2018-06-03T07:55:21Z</time>
      </trkpt>
      <trkpt lat="49.58824" lon="4.95382">
        <ele>227.97</ele>
        <time>2018-06-03T07:55:35Z</time>
      </trkpt>
      <trkpt lat="49.5881" lon="4.95372">
        <ele>228.93</ele>
        <time>2018-06-03T07:55:48Z</time>
      </trkpt>
      <trkpt lat="49.58797" lon="4.95362">
        <ele>230.85</ele>
        <time>2018-06-03T07:56:01Z</time>
      </trkpt>
      <trkpt lat="49.58782" lon="4.95353">
        <ele>233.74</ele>
        <time>2018-06-03T07:56:14Z</time>
      </trkpt>
      <trkpt lat="49.58767" lon="4.95342">
        <ele>237.1</ele>
        <time>2018-06-03T07:56:29Z</time>
      </trkpt>
      <trkpt lat="49.58758" lon="4.95338">
        <ele>238.54</ele>
        <time>2018-06-03T07:56:37Z</time>
      </trkpt>
      <trkpt lat="49.58744" lon="4.95323">
        <ele>241.91</ele>
        <time>2018-06-03T07:56:53Z</time>
      </trkpt>
      <trkpt lat="49.58734" lon="4.9531">
        <ele>244.79</ele>
        <time>2018-06-03T07:57:05Z</time>
      </trkpt>
      <trkpt lat="49.58725" lon="4.95292">
        <ele>247.2</ele>
        <time>2018-06-03T07:57:21Z</time>
      </trkpt>
      <trkpt lat="49.58724" lon="4.95291">
        <ele>247.68</ele>
        <time>2018-06-03T07:57:22Z</time>
      </trkpt>
      <trkpt lat="49.58722" lon="4.95287">
        <ele>248.64</ele>
        <time>2018-06-03T07:57:26Z</time>
      </trkpt>
      <trkpt lat="49.58711" lon="4.95264">
        <ele>250.56</ele>
        <time>2018-06-03T07:57:42Z</time>
      </trkpt>
      <trkpt lat="49.58701" lon="4.95241">
        <ele>250.56</ele>
        <time>2018-06-03T07:57:57Z</time>
      </trkpt>
      <trkpt lat="49.58689" lon="4.95219">
        <ele>250.08</ele>
        <time>2018-06-03T07:58:15Z</time>
      </trkpt>
      <trkpt lat="49.58671" lon="4.95199">
        <ele>249.12</ele>
        <time>2018-06-03T07:58:32Z</time>
      </trkpt>
      <trkpt lat="49.58657" lon="4.95184">
        <ele>251.52</ele>
        <time>2018-06-03T07:58:48Z</time>
      </trkpt>
      <trkpt lat="49.58651" lon="4.9518">
        <ele>251.04</ele>
        <time>2018-06-03T07:59:01Z</time>
      </trkpt>
      <trkpt lat="49.5864" lon="4.9517">
        <ele>252.48</ele>
        <time>2018-06-03T07:59:16Z</time>
      </trkpt>
      <trkpt lat="49.58626" lon="4.95158">
        <ele>254.41</ele>
        <time>2018-06-03T07:59:31Z</time>
      </trkpt>
      <trkpt lat="49.58614" lon="4.95146">
        <ele>256.33</ele>
        <time>2018-06-03T07:59:46Z</time>
      </trkpt>
      <trkpt lat="49.58601" lon="4.95134">
        <ele>258.73</ele>
        <time>2018-06-03T08:00:01Z</time>
      </trkpt>
      <trkpt lat="49.58586" lon="4.95119">
        <ele>260.17</ele>
        <time>2018-06-03T08:00:17Z</time>
      </trkpt>
      <trkpt lat="49.58571" lon="4.95099">
        <ele>261.14</ele>
        <time>2018-06-03T08:00:33Z</time>
      </trkpt>
      <trkpt lat="49.58554" lon="4.95081">
        <ele>260.17</ele>
        <time>2018-06-03T08:00:49Z</time>
      </trkpt>
      <trkpt lat="49.58551" lon="4.95077">
        <ele>260.65</ele>
        <time>2018-06-03T08:01:07Z</time>
      </trkpt>
      <trkpt lat="49.58544" lon="4.9507">
        <ele>260.65</ele>
        <time>2018-06-03T08:01:20Z</time>
      </trkpt>
      <trkpt lat="49.58533" lon="4.95057">
        <ele>262.58</ele>
        <time>2018-06-03T08:01:36Z</time>
      </trkpt>
      <trkpt lat="49.58518" lon="4.95039">
        <ele>262.58</ele>
        <time>2018-06-03T08:01:54Z</time>
      </trkpt>
      <trkpt lat="49.58502" lon="4.95023">
        <ele>264.02</ele>
        <time>2018-06-03T08:02:10Z</time>
      </trkpt>
      <trkpt lat="49.58484" lon="4.95005">
        <ele>266.9</ele>
        <time>2018-06-03T08:02:27Z</time>
      </trkpt>
      <trkpt lat="49.58463" lon="4.9499">
        <ele>267.86</ele>
        <time>2018-06-03T08:02:46Z</time>
      </trkpt>
      <trkpt lat="49.58458" lon="4.94988">
        <ele>268.83</ele>
        <time>2018-06-03T08:02:58Z</time>
      </trkpt>
      <trkpt lat="49.58451" lon="4.94984">
        <ele>269.31</ele>
        <time>2018-06-03T08:03:10Z</time>
      </trkpt>
      <trkpt lat="49.58439" lon="4.94979">
        <ele>269.31</ele>
        <time>2018-06-03T08:03:24Z</time>
      </trkpt>
      <trkpt lat="49.58425" lon="4.94972">
        <ele>267.86</ele>
        <time>2018-06-03T08:03:39Z</time>
      </trkpt>
      <trkpt lat="49.58405" lon="4.94961">
        <ele>267.86</ele>
        <time>2018-06-03T08:03:57Z</time>
      </trkpt>
      <trkpt lat="49.58395" lon="4.94957">
        <ele>267.86</ele>
        <time>2018-06-03T08:04:13Z</time>
      </trkpt>
      <trkpt lat="49.58387" lon="4.94953">
        <ele>267.38</ele>
        <time>2018-06-03T08:04:25Z</time>
      </trkpt>
      <trkpt lat="49.58368" lon="4.94943">
        <ele>265.94</ele>
        <time>2018-06-03T08:04:43Z</time>
      </trkpt>
      <trkpt lat="49.58345" lon="4.94927">
        <ele>265.46</ele>
        <time>2018-06-03T08:05:03Z</time>
      </trkpt>
      <trkpt lat="49.58328" lon="4.94912">
        <ele>264.02</ele>
        <time>2018-06-03T08:05:21Z</time>
      </trkpt>
      <trkpt lat="49.5832" lon="4.94905">
        <ele>264.02</ele>
        <time>2018-06-03T08:05:34Z</time>
      </trkpt>
      <trkpt lat="49.58307" lon="4.94895">
        <ele>262.1</ele>
        <time>2018-06-03T08:05:51Z</time>
      </trkpt>
      <trkpt lat="49.58288" lon="4.94877">
        <ele>260.17</ele>
        <time>2018-06-03T08:06:09Z</time>
      </trkpt>
      <trkpt lat="49.58272" lon="4.94866">
        <ele>258.25</ele>
        <time>2018-06-03T08:06:27Z</time>
      </trkpt>
      <trkpt lat="49.58263" lon="4.94857">
        <ele>258.25</ele>
        <time>2018-06-03T08:06:42Z</time>
      </trkpt>
      <trkpt lat="49.58244" lon="4.94842">
        <ele>257.29</ele>
        <time>2018-06-03T08:07:01Z</time>
      </trkpt>
      <trkpt lat="49.58226" lon="4.94829">
        <ele>257.29</ele>
        <time>2018-06-03T08:07:18Z</time>
      </trkpt>
      <trkpt lat="49.58222" lon="4.94824">
        <ele>256.81</ele>
        <time>2018-06-03T08:07:23Z</time>
      </trkpt>
      <trkpt lat="49.58214" lon="4.94817">
        <ele>255.85</ele>
        <time>2018-06-03T08:07:39Z</time>
      </trkpt>
      <trkpt lat="49.58208" lon="4.9481">
        <ele>255.85</ele>
        <time>2018-06-03T08:07:54Z</time>
      </trkpt>
      <trkpt lat="49.58197" lon="4.948">
        <ele>255.37</ele>
        <time>2018-06-03T08:08:12Z</time>
      </trkpt>
      <trkpt lat="49.58187" lon="4.94789">
        <ele>256.33</ele>
        <time>2018-06-03T08:08:25Z</time>
      </trkpt>
      <trkpt lat="49.58178" lon="4.94781">
        <ele>255.37</ele>
        <time>2018-06-03T08:08:42Z</time>
      </trkpt>
      <trkpt lat="49.58159" lon="4.94763">
        <ele>255.37</ele>
        <time>2018-06-03T08:09:00Z</time>
      </trkpt>
      <trkpt lat="49.58143" lon="4.94746">
        <ele>254.89</ele>
        <time>2018-06-03T08:09:17Z</time>
      </trkpt>
      <trkpt lat="49.58124" lon="4.94732">
        <ele>252.96</ele>
        <time>2018-06-03T08:09:34Z</time>
      </trkpt>
      <trkpt lat="49.58107" lon="4.94718">
        <ele>252.48</ele>
        <time>2018-06-03T08:09:53Z</time>
      </trkpt>
      <trkpt lat="49.58085" lon="4.94701">
        <ele>251.04</ele>
        <time>2018-06-03T08:10:13Z</time>
      </trkpt>
      <trkpt lat="49.58063" lon="4.94688">
        <ele>252</ele>
        <time>2018-06-03T08:10:31Z</time>
      </trkpt>
      <trkpt lat="49.58037" lon="4.94676">
        <ele>251.04</ele>
        <time>2018-06-03T08:10:51Z</time>
      </trkpt>
      <trkpt lat="49.58014" lon="4.94668">
        <ele>251.04</ele>
        <time>2018-06-03T08:11:09Z</time>
      </trkpt>
      <trkpt lat="49.5799" lon="4.94655">
        <ele>253.44</ele>
        <time>2018-06-03T08:11:29Z</time>
      </trkpt>
      <trkpt lat="49.57969" lon="4.94646">
        <ele>254.89</ele>
        <time>2018-06-03T08:11:47Z</time>
      </trkpt>
      <trkpt lat="49.57946" lon="4.94635">
        <ele>256.33</ele>
        <time>2018-06-03T08:12:05Z</time>
      </trkpt>
      <trkpt lat="49.57922" lon="4.94617">
        <ele>262.58</ele>
        <time>2018-06-03T08:12:25Z</time>
      </trkpt>
      <trkpt lat="49.57904" lon="4.94608">
        <ele>268.83</ele>
        <time>2018-06-03T08:12:43Z</time>
      </trkpt>
      <trkpt lat="49.57883" lon="4.94587">
        <ele>268.83</ele>
        <time>2018-06-03T08:13:03Z</time>
      </trkpt>
      <trkpt lat="49.57866" lon="4.94573">
        <ele>266.9</ele>
        <time>2018-06-03T08:13:19Z</time>
      </trkpt>
      <trkpt lat="49.5785" lon="4.94554">
        <ele>264.02</ele>
        <time>2018-06-03T08:13:39Z</time>
      </trkpt>
      <trkpt lat="49.57835" lon="4.94531">
        <ele>262.58</ele>
        <time>2018-06-03T08:13:57Z</time>
      </trkpt>
      <trkpt lat="49.5782" lon="4.9451">
        <ele>254.89</ele>
        <time>2018-06-03T08:14:15Z</time>
      </trkpt>
      <trkpt lat="49.57803" lon="4.94489">
        <ele>251.52</ele>
        <time>2018-06-03T08:14:33Z</time>
      </trkpt>
      <trkpt lat="49.57784" lon="4.94464">
        <ele>251.04</ele>
        <time>2018-06-03T08:14:55Z</time>
      </trkpt>
      <trkpt lat="49.57765" lon="4.94439">
        <ele>249.12</ele>
        <time>2018-06-03T08:15:15Z</time>
      </trkpt>
      <trkpt lat="49.57747" lon="4.94415">
        <ele>247.2</ele>
        <time>2018-06-03T08:15:35Z</time>
      </trkpt>
      <trkpt lat="49.57729" lon="4.94394">
        <ele>247.68</ele>
        <time>2018-06-03T08:15:53Z</time>
      </trkpt>
      <trkpt lat="49.57716" lon="4.94374">
        <ele>249.12</ele>
        <time>2018-06-03T08:16:09Z</time>
      </trkpt>
      <trkpt lat="49.57701" lon="4.94355">
        <ele>248.16</ele>
        <time>2018-06-03T08:16:27Z</time>
      </trkpt>
      <trkpt lat="49.57681" lon="4.94329">
        <ele>250.56</ele>
        <time>2018-06-03T08:16:48Z</time>
      </trkpt>
      <trkpt lat="49.57665" lon="4.94308">
        <ele>250.08</ele>
        <time>2018-06-03T08:17:06Z</time>
      </trkpt>
      <trkpt lat="49.57646" lon="4.94284">
        <ele>249.6</ele>
        <time>2018-06-03T08:17:25Z</time>
      </trkpt>
      <trkpt lat="49.57635" lon="4.94262">
        <ele>249.6</ele>
        <time>2018-06-03T08:17:41Z</time>
      </trkpt>
      <trkpt lat="49.57626" lon="4.94233">
        <ele>252.96</ele>
        <time>2018-06-03T08:17:59Z</time>
      </trkpt>
      <trkpt lat="49.57616" lon="4.94204">
        <ele>251.52</ele>
        <time>2018-06-03T08:18:17Z</time>
      </trkpt>
      <trkpt lat="49.57605" lon="4.94177">
        <ele>249.6</ele>
        <time>2018-06-03T08:18:37Z</time>
      </trkpt>
      <trkpt lat="49.57596" lon="4.94149">
        <ele>247.2</ele>
        <time>2018-06-03T08:18:55Z</time>
      </trkpt>
      <trkpt lat="49.57591" lon="4.94116">
        <ele>241.43</ele>
        <time>2018-06-03T08:19:15Z</time>
      </trkpt>
      <trkpt lat="49.5759" lon="4.94083">
        <ele>234.7</ele>
        <time>2018-06-03T08:19:34Z</time>
      </trkpt>
      <trkpt lat="49.57589" lon="4.94054">
        <ele>232.78</ele>
        <time>2018-06-03T08:19:51Z</time>
      </trkpt>
      <trkpt lat="49.57583" lon="4.94022">
        <ele>231.81</ele>
        <time>2018-06-03T08:20:09Z</time>
      </trkpt>
      <trkpt lat="49.57578" lon="4.9401">
        <ele>231.33</ele>
        <time>2018-06-03T08:20:26Z</time>
      </trkpt>
      <trkpt lat="49.57578" lon="4.9401">
        <ele>231.33</ele>
        <time>2018-06-03T08:20:48Z</time>
      </trkpt>
      <trkpt lat="49.57578" lon="4.9401">
        <ele>231.81</ele>
        <time>2018-06-03T08:21:07Z</time>
      </trkpt>
      <trkpt lat="49.57573" lon="4.93999">
        <ele>230.85</ele>
        <time>2018-06-03T08:21:22Z</time>
      </trkpt>
      <trkpt lat="49.57562" lon="4.93976">
        <ele>229.41</ele>
        <time>2018-06-03T08:21:39Z</time>
      </trkpt>
      <trkpt lat="49.57551" lon="4.93954">
        <ele>227.01</ele>
        <time>2018-06-03T08:21:53Z</time>
      </trkpt>
      <trkpt lat="49.57541" lon="4.93931">
        <ele>227.97</ele>
        <time>2018-06-03T08:22:09Z</time>
      </trkpt>
      <trkpt lat="49.57533" lon="4.93912">
        <ele>227.49</ele>
        <time>2018-06-03T08:22:27Z</time>
      </trkpt>
      <trkpt lat="49.57527" lon="4.93896">
        <ele>225.57</ele>
        <time>2018-06-03T08:22:40Z</time>
      </trkpt>
      <trkpt lat="49.57521" lon="4.93879">
        <ele>225.57</ele>
        <time>2018-06-03T08:22:52Z</time>
      </trkpt>
      <trkpt lat="49.57515" lon="4.93868">
        <ele>225.57</ele>
        <time>2018-06-03T08:23:03Z</time>
      </trkpt>
      <trkpt lat="49.57507" lon="4.93838">
        <ele>224.12</ele>
        <time>2018-06-03T08:23:22Z</time>
      </trkpt>
      <trkpt lat="49.57496" lon="4.93808">
        <ele>225.57</ele>
        <time>2018-06-03T08:23:39Z</time>
      </trkpt>
      <trkpt lat="49.57494" lon="4.93801">
        <ele>224.12</ele>
        <time>2018-06-03T08:23:51Z</time>
      </trkpt>
      <trkpt lat="49.57485" lon="4.93785">
        <ele>224.61</ele>
        <time>2018-06-03T08:24:03Z</time>
      </trkpt>
      <trkpt lat="49.57469" lon="4.93768">
        <ele>223.16</ele>
        <time>2018-06-03T08:24:18Z</time>
      </trkpt>
      <trkpt lat="49.57458" lon="4.93758">
        <ele>220.76</ele>
        <time>2018-06-03T08:24:33Z</time>
      </trkpt>
      <trkpt lat="49.57445" lon="4.93746">
        <ele>220.28</ele>
        <time>2018-06-03T08:24:47Z</time>
      </trkpt>
      <trkpt lat="49.5744" lon="4.93743">
        <ele>219.8</ele>
        <time>2018-06-03T08:24:52Z</time>
      </trkpt>
      <trkpt lat="49.57422" lon="4.93723">
        <ele>219.8</ele>
        <time>2018-06-03T08:25:10Z</time>
      </trkpt>
      <trkpt lat="49.5741" lon="4.93703">
        <ele>220.28</ele>
        <time>2018-06-03T08:25:26Z</time>
      </trkpt>
      <trkpt lat="49.57405" lon="4.93678">
        <ele>222.68</ele>
        <time>2018-06-03T08:25:39Z</time>
      </trkpt>
      <trkpt lat="49.57396" lon="4.93641">
        <ele>220.28</ele>
        <time>2018-06-03T08:26:00Z</time>
      </trkpt>
      <trkpt lat="49.57392" lon="4.93604">
        <ele>217.88</ele>
        <time>2018-06-03T08:26:19Z</time>
      </trkpt>
      <trkpt lat="49.57385" lon="4.93567">
        <ele>216.91</ele>
        <time>2018-06-03T08:26:38Z</time>
      </trkpt>
      <trkpt lat="49.57379" lon="4.93535">
        <ele>215.47</ele>
        <time>2018-06-03T08:26:55Z</time>
      </trkpt>
      <trkpt lat="49.57365" lon="4.93507">
        <ele>213.55</ele>
        <time>2018-06-03T08:27:12Z</time>
      </trkpt>
      <trkpt lat="49.57361" lon="4.93501">
        <ele>213.55</ele>
        <time>2018-06-03T08:27:31Z</time>
      </trkpt>
      <trkpt lat="49.57354" lon="4.9349">
        <ele>214.51</ele>
        <time>2018-06-03T08:27:47Z</time>
      </trkpt>
      <trkpt lat="49.57353" lon="4.93487">
        <ele>214.51</ele>
        <time>2018-06-03T08:27:59Z</time>
      </trkpt>
      <trkpt lat="49.57348" lon="4.93479">
        <ele>215.95</ele>
        <time>2018-06-03T08:28:14Z</time>
      </trkpt>
      <trkpt lat="49.5734" lon="4.93466">
        <ele>217.88</ele>
        <time>2018-06-03T08:28:30Z</time>
      </trkpt>
      <trkpt lat="49.57332" lon="4.93451">
        <ele>219.8</ele>
        <time>2018-06-03T08:28:47Z</time>
      </trkpt>
      <trkpt lat="49.57319" lon="4.93419">
        <ele>219.8</ele>
        <time>2018-06-03T08:29:05Z</time>
      </trkpt>
      <trkpt lat="49.57314" lon="4.93393">
        <ele>219.8</ele>
        <time>2018-06-03T08:29:20Z</time>
      </trkpt>
      <trkpt lat="49.5731" lon="4.93362">
        <ele>218.36</ele>
        <time>2018-06-03T08:29:38Z</time>
      </trkpt>
      <trkpt lat="49.57307" lon="4.9335">
        <ele>218.36</ele>
        <time>2018-06-03T08:29:44Z</time>
      </trkpt>
      <trkpt lat="49.57302" lon="4.93325">
        <ele>216.43</ele>
        <time>2018-06-03T08:30:01Z</time>
      </trkpt>
      <trkpt lat="49.57294" lon="4.93302">
        <ele>213.55</ele>
        <time>2018-06-03T08:30:16Z</time>
      </trkpt>
      <trkpt lat="49.57277" lon="4.93284">
        <ele>211.63</ele>
        <time>2018-06-03T08:30:32Z</time>
      </trkpt>
      <trkpt lat="49.57272" lon="4.93278">
        <ele>212.11</ele>
        <time>2018-06-03T08:30:37Z</time>
      </trkpt>
      <trkpt lat="49.57245" lon="4.9326">
        <ele>214.51</ele>
        <time>2018-06-03T08:30:59Z</time>
      </trkpt>
      <trkpt lat="49.57222" lon="4.93244">
        <ele>211.63</ele>
        <time>2018-06-03T08:31:19Z</time>
      </trkpt>
      <trkpt lat="49.57221" lon="4.93243">
        <ele>211.63</ele>
        <time>2018-06-03T08:31:20Z</time>
      </trkpt>
      <trkpt lat="49.57213" lon="4.93232">
        <ele>211.15</ele>
        <time>2018-06-03T08:31:28Z</time>
      </trkpt>
      <trkpt lat="49.572" lon="4.93213">
        <ele>207.3</ele>
        <time>2018-06-03T08:31:44Z</time>
      </trkpt>
      <trkpt lat="49.57185" lon="4.93195">
        <ele>206.82</ele>
        <time>2018-06-03T08:31:58Z</time>
      </trkpt>
      <trkpt lat="49.57174" lon="4.93175">
        <ele>207.78</ele>
        <time>2018-06-03T08:32:12Z</time>
      </trkpt>
      <trkpt lat="49.57168" lon="4.93155">
        <ele>208.26</ele>
        <time>2018-06-03T08:32:24Z</time>
      </trkpt>
      <trkpt lat="49.5716" lon="4.93134">
        <ele>209.22</ele>
        <time>2018-06-03T08:32:39Z</time>
      </trkpt>
      <trkpt lat="49.57149" lon="4.93117">
        <ele>211.15</ele>
        <time>2018-06-03T08:32:53Z</time>
      </trkpt>
      <trkpt lat="49.57138" lon="4.93102">
        <ele>215.95</ele>
        <time>2018-06-03T08:33:08Z</time>
      </trkpt>
      <trkpt lat="49.57131" lon="4.93096">
        <ele>222.2</ele>
        <time>2018-06-03T08:33:17Z</time>
      </trkpt>
      <trkpt lat="49.57118" lon="4.9308">
        <ele>224.61</ele>
        <time>2018-06-03T08:33:35Z</time>
      </trkpt>
      <trkpt lat="49.57102" lon="4.9306">
        <ele>229.41</ele>
        <time>2018-06-03T08:33:51Z</time>
      </trkpt>
      <trkpt lat="49.571" lon="4.93058">
        <ele>229.89</ele>
        <time>2018-06-03T08:33:52Z</time>
      </trkpt>
      <trkpt lat="49.57088" lon="4.93043">
        <ele>236.62</ele>
        <time>2018-06-03T08:34:04Z</time>
      </trkpt>
      <trkpt lat="49.5708" lon="4.93029">
        <ele>241.91</ele>
        <time>2018-06-03T08:34:15Z</time>
      </trkpt>
      <trkpt lat="49.57074" lon="4.93009">
        <ele>248.64</ele>
        <time>2018-06-03T08:34:32Z</time>
      </trkpt>
      <trkpt lat="49.57062" lon="4.92996">
        <ele>248.16</ele>
        <time>2018-06-03T08:34:45Z</time>
      </trkpt>
      <trkpt lat="49.57045" lon="4.92979">
        <ele>245.27</ele>
        <time>2018-06-03T08:35:03Z</time>
      </trkpt>
      <trkpt lat="49.57017" lon="4.92961">
        <ele>237.1</ele>
        <time>2018-06-03T08:35:23Z</time>
      </trkpt>
      <trkpt lat="49.57008" lon="4.92954">
        <ele>232.78</ele>
        <time>2018-06-03T08:35:37Z</time>
      </trkpt>
      <trkpt lat="49.56996" lon="4.92936">
        <ele>229.41</ele>
        <time>2018-06-03T08:35:52Z</time>
      </trkpt>
      <trkpt lat="49.56992" lon="4.92929">
        <ele>228.45</ele>
        <time>2018-06-03T08:36:06Z</time>
      </trkpt>
      <trkpt lat="49.56984" lon="4.92919">
        <ele>226.05</ele>
        <time>2018-06-03T08:36:19Z</time>
      </trkpt>
      <trkpt lat="49.56981" lon="4.92909">
        <ele>225.09</ele>
        <time>2018-06-03T08:36:33Z</time>
      </trkpt>
      <trkpt lat="49.5698" lon="4.92901">
        <ele>223.64</ele>
        <time>2018-06-03T08:36:40Z</time>
      </trkpt>
      <trkpt lat="49.56979" lon="4.9287">
        <ele>222.2</ele>
        <time>2018-06-03T08:36:58Z</time>
      </trkpt>
      <trkpt lat="49.56983" lon="4.92858">
        <ele>222.2</ele>
        <time>2018-06-03T08:37:07Z</time>
      </trkpt>
      <trkpt lat="49.56985" lon="4.92852">
        <ele>222.2</ele>
        <time>2018-06-03T08:37:23Z</time>
      </trkpt>
      <trkpt lat="49.56988" lon="4.92841">
        <ele>222.68</ele>
        <time>2018-06-03T08:37:40Z</time>
      </trkpt>
      <trkpt lat="49.5699" lon="4.9283">
        <ele>222.68</ele>
        <time>2018-06-03T08:37:46Z</time>
      </trkpt>
      <trkpt lat="49.56995" lon="4.92805">
        <ele>221.72</ele>
        <time>2018-06-03T08:38:02Z</time>
      </trkpt>
      <trkpt lat="49.56999" lon="4.92771">
        <ele>220.76</ele>
        <time>2018-06-03T08:38:19Z</time>
      </trkpt>
      <trkpt lat="49.57001" lon="4.92755">
        <ele>223.64</ele>
        <time>2018-06-03T08:38:34Z</time>
      </trkpt>
      <trkpt lat="49.57007" lon="4.92749">
        <ele>222.68</ele>
        <time>2018-06-03T08:38:49Z</time>
      </trkpt>
      <trkpt lat="49.57007" lon="4.92748">
        <ele>223.16</ele>
        <time>2018-06-03T08:39:02Z</time>
      </trkpt>
      <trkpt lat="49.57006" lon="4.92746">
        <ele>222.68</ele>
        <time>2018-06-03T08:39:18Z</time>
      </trkpt>
      <trkpt lat="49.57006" lon="4.92745">
        <ele>222.68</ele>
        <time>2018-06-03T08:39:41Z</time>
      </trkpt>
      <trkpt lat="49.57005" lon="4.92745">
        <ele>223.16</ele>
        <time>2018-06-03T08:40:02Z</time>
      </trkpt>
      <trkpt lat="49.57005" lon="4.92744">
        <ele>222.68</ele>
        <time>2018-06-03T08:40:24Z</time>
      </trkpt>
      <trkpt lat="49.57005" lon="4.92745">
        <ele>222.2</ele>
        <time>2018-06-03T08:40:52Z</time>
      </trkpt>
      <trkpt lat="49.57005" lon="4.92745">
        <ele>222.68</ele>
        <time>2018-06-03T08:41:19Z</time>
      </trkpt>
      <trkpt lat="49.57005" lon="4.92745">
        <ele>223.16</ele>
        <time>2018-06-03T08:41:46Z</time>
      </trkpt>
      <trkpt lat="49.57004" lon="4.92744">
        <ele>223.64</ele>
        <time>2018-06-03T08:42:14Z</time>
      </trkpt>
      <trkpt lat="49.57004" lon="4.92744">
        <ele>224.12</ele>
        <time>2018-06-03T08:42:27Z</time>
      </trkpt>
      <trkpt lat="49.57015" lon="4.92749">
        <ele>223.64</ele>
        <time>2018-06-03T08:42:44Z</time>
      </trkpt>
      <trkpt lat="49.57022" lon="4.92753">
        <ele>223.64</ele>
        <time>2018-06-03T08:43:04Z</time>
      </trkpt>
      <trkpt lat="49.57041" lon="4.92767">
        <ele>219.8</ele>
        <time>2018-06-03T08:43:25Z</time>
      </trkpt>
      <trkpt lat="49.57045" lon="4.92771">
        <ele>219.32</ele>
        <time>2018-06-03T08:43:29Z</time>
      </trkpt>
      <trkpt lat="49.57064" lon="4.92784">
        <ele>215.47</ele>
        <time>2018-06-03T08:43:46Z</time>
      </trkpt>
      <trkpt lat="49.57072" lon="4.92793">
        <ele>213.07</ele>
        <time>2018-06-03T08:44:01Z</time>
      </trkpt>
      <trkpt lat="49.57088" lon="4.9281">
        <ele>208.26</ele>
        <time>2018-06-03T08:44:19Z</time>
      </trkpt>
      <trkpt lat="49.57114" lon="4.92833">
        <ele>210.67</ele>
        <time>2018-06-03T08:44:36Z</time>
      </trkpt>
      <trkpt lat="49.57133" lon="4.92852">
        <ele>210.67</ele>
        <time>2018-06-03T08:44:54Z</time>
      </trkpt>
      <trkpt lat="49.57147" lon="4.92865">
        <ele>210.19</ele>
        <time>2018-06-03T08:45:12Z</time>
      </trkpt>
      <trkpt lat="49.57154" lon="4.9287">
        <ele>210.67</ele>
        <time>2018-06-03T08:45:28Z</time>
      </trkpt>
      <trkpt lat="49.5718" lon="4.92886">
        <ele>213.55</ele>
        <time>2018-06-03T08:45:46Z</time>
      </trkpt>
      <trkpt lat="49.57194" lon="4.92892">
        <ele>211.15</ele>
        <time>2018-06-03T08:46:03Z</time>
      </trkpt>
      <trkpt lat="49.5721" lon="4.92899">
        <ele>210.19</ele>
        <time>2018-06-03T08:46:19Z</time>
      </trkpt>
      <trkpt lat="49.57237" lon="4.92897">
        <ele>212.11</ele>
        <time>2018-06-03T08:46:36Z</time>
      </trkpt>
      <trkpt lat="49.57244" lon="4.92896">
        <ele>211.63</ele>
        <time>2018-06-03T08:46:41Z</time>
      </trkpt>
      <trkpt lat="49.57263" lon="4.92883">
        <ele>211.63</ele>
        <time>2018-06-03T08:46:58Z</time>
      </trkpt>
      <trkpt lat="49.57278" lon="4.92866">
        <ele>211.63</ele>
        <time>2018-06-03T08:47:13Z</time>
      </trkpt>
      <trkpt lat="49.57295" lon="4.92839">
        <ele>207.78</ele>
        <time>2018-06-03T08:47:32Z</time>
      </trkpt>
      <trkpt lat="49.57307" lon="4.92818">
        <ele>207.3</ele>
        <time>2018-06-03T08:47:49Z</time>
      </trkpt>
      <trkpt lat="49.57324" lon="4.92789">
        <ele>208.26</ele>
        <time>2018-06-03T08:48:08Z</time>
      </trkpt>
      <trkpt lat="49.57336" lon="4.92768">
        <ele>207.78</ele>
        <time>2018-06-03T08:48:25Z</time>
      </trkpt>
      <trkpt lat="49.57355" lon="4.92745">
        <ele>208.26</ele>
        <time>2018-06-03T08:48:41Z</time>
      </trkpt>
      <trkpt lat="49.57381" lon="4.9272">
        <ele>210.19</ele>
        <time>2018-06-03T08:49:01Z</time>
      </trkpt>
      <trkpt lat="49.57402" lon="4.92698">
        <ele>209.22</ele>
        <time>2018-06-03T08:49:22Z</time>
      </trkpt>
      <trkpt lat="49.57419" lon="4.9268">
        <ele>210.19</ele>
        <time>2018-06-03T08:49:39Z</time>
      </trkpt>
      <trkpt lat="49.57435" lon="4.92664">
        <ele>210.19</ele>
        <time>2018-06-03T08:49:54Z</time>
      </trkpt>
      <trkpt lat="49.57449" lon="4.92649">
        <ele>211.63</ele>
        <time>2018-06-03T08:50:10Z</time>
      </trkpt>
      <trkpt lat="49.57461" lon="4.92635">
        <ele>211.15</ele>
        <time>2018-06-03T08:50:24Z</time>
      </trkpt>
      <trkpt lat="49.57477" lon="4.92617">
        <ele>210.19</ele>
        <time>2018-06-03T08:50:43Z</time>
      </trkpt>
      <trkpt lat="49.57487" lon="4.92606">
        <ele>208.74</ele>
        <time>2018-06-03T08:50:56Z</time>
      </trkpt>
      <trkpt lat="49.57502" lon="4.92591">
        <ele>208.74</ele>
        <time>2018-06-03T08:51:12Z</time>
      </trkpt>
      <trkpt lat="49.57508" lon="4.92585">
        <ele>208.26</ele>
        <time>2018-06-03T08:51:24Z</time>
      </trkpt>
      <trkpt lat="49.57508" lon="4.92586">
        <ele>207.78</ele>
        <time>2018-06-03T08:51:44Z</time>
      </trkpt>
      <trkpt lat="49.57508" lon="4.92586">
        <ele>207.78</ele>
        <time>2018-06-03T08:52:04Z</time>
      </trkpt>
      <trkpt lat="49.57519" lon="4.92574">
        <ele>207.78</ele>
        <time>2018-06-03T08:52:21Z</time>
      </trkpt>
      <trkpt lat="49.5753" lon="4.92568">
        <ele>208.26</ele>
        <time>2018-06-03T08:52:35Z</time>
      </trkpt>
      <trkpt lat="49.57531" lon="4.9257">
        <ele>209.22</ele>
        <time>2018-06-03T08:52:56Z</time>
      </trkpt>
      <trkpt lat="49.57534" lon="4.92581">
        <ele>209.7</ele>
        <time>2018-06-03T08:53:03Z</time>
      </trkpt>
      <trkpt lat="49.57536" lon="4.92592">
        <ele>209.7</ele>
        <time>2018-06-03T08:53:08Z</time>
      </trkpt>
      <trkpt lat="49.57544" lon="4.92623">
        <ele>211.15</ele>
        <time>2018-06-03T08:53:28Z</time>
      </trkpt>
      <trkpt lat="49.57548" lon="4.92636">
        <ele>211.63</ele>
        <time>2018-06-03T08:53:49Z</time>
      </trkpt>
      <trkpt lat="49.57553" lon="4.92657">
        <ele>211.15</ele>
        <time>2018-06-03T08:54:04Z</time>
      </trkpt>
      <trkpt lat="49.57553" lon="4.92658">
        <ele>211.15</ele>
        <time>2018-06-03T08:54:08Z</time>
      </trkpt>
      <trkpt lat="49.57558" lon="4.92675">
        <ele>211.15</ele>
        <time>2018-06-03T08:54:23Z</time>
      </trkpt>
      <trkpt lat="49.57559" lon="4.92678">
        <ele>211.63</ele>
        <time>2018-06-03T08:54:38Z</time>
      </trkpt>
      <trkpt lat="49.57564" lon="4.92691">
        <ele>212.11</ele>
        <time>2018-06-03T08:54:55Z</time>
      </trkpt>
      <trkpt lat="49.57565" lon="4.92696">
        <ele>212.11</ele>
        <time>2018-06-03T08:55:07Z</time>
      </trkpt>
      <trkpt lat="49.5757" lon="4.92714">
        <ele>213.55</ele>
        <time>2018-06-03T08:55:21Z</time>
      </trkpt>
      <trkpt lat="49.57572" lon="4.9272">
        <ele>214.03</ele>
        <time>2018-06-03T08:55:32Z</time>
      </trkpt>
      <trkpt lat="49.57579" lon="4.92743">
        <ele>214.99</ele>
        <time>2018-06-03T08:55:47Z</time>
      </trkpt>
      <trkpt lat="49.57585" lon="4.92768">
        <ele>216.91</ele>
        <time>2018-06-03T08:56:03Z</time>
      </trkpt>
      <trkpt lat="49.57591" lon="4.92794">
        <ele>218.84</ele>
        <time>2018-06-03T08:56:18Z</time>
      </trkpt>
      <trkpt lat="49.57597" lon="4.92818">
        <ele>219.32</ele>
        <time>2018-06-03T08:56:34Z</time>
      </trkpt>
      <trkpt lat="49.57603" lon="4.92839">
        <ele>220.28</ele>
        <time>2018-06-03T08:56:48Z</time>
      </trkpt>
      <trkpt lat="49.57609" lon="4.92863">
        <ele>220.28</ele>
        <time>2018-06-03T08:57:03Z</time>
      </trkpt>
      <trkpt lat="49.57616" lon="4.92887">
        <ele>221.72</ele>
        <time>2018-06-03T08:57:18Z</time>
      </trkpt>
      <trkpt lat="49.5762" lon="4.92903">
        <ele>223.64</ele>
        <time>2018-06-03T08:57:33Z</time>
      </trkpt>
      <trkpt lat="49.57626" lon="4.92919">
        <ele>225.57</ele>
        <time>2018-06-03T08:57:45Z</time>
      </trkpt>
      <trkpt lat="49.57635" lon="4.92941">
        <ele>226.05</ele>
        <time>2018-06-03T08:58:01Z</time>
      </trkpt>
      <trkpt lat="49.57644" lon="4.92966">
        <ele>226.05</ele>
        <time>2018-06-03T08:58:17Z</time>
      </trkpt>
      <trkpt lat="49.57653" lon="4.92986">
        <ele>227.01</ele>
        <time>2018-06-03T08:58:31Z</time>
      </trkpt>
      <trkpt lat="49.57664" lon="4.93016">
        <ele>227.49</ele>
        <time>2018-06-03T08:58:48Z</time>
      </trkpt>
      <trkpt lat="49.57675" lon="4.9304">
        <ele>228.93</ele>
        <time>2018-06-03T08:59:05Z</time>
      </trkpt>
      <trkpt lat="49.57685" lon="4.93066">
        <ele>231.33</ele>
        <time>2018-06-03T08:59:22Z</time>
      </trkpt>
      <trkpt lat="49.57695" lon="4.93091">
        <ele>231.81</ele>
        <time>2018-06-03T08:59:40Z</time>
      </trkpt>
      <trkpt lat="49.57705" lon="4.93119">
        <ele>232.3</ele>
        <time>2018-06-03T08:59:57Z</time>
      </trkpt>
      <trkpt lat="49.57716" lon="4.93148">
        <ele>232.3</ele>
        <time>2018-06-03T09:00:16Z</time>
      </trkpt>
      <trkpt lat="49.57726" lon="4.93175">
        <ele>233.26</ele>
        <time>2018-06-03T09:00:32Z</time>
      </trkpt>
      <trkpt lat="49.57739" lon="4.93199">
        <ele>234.22</ele>
        <time>2018-06-03T09:00:49Z</time>
      </trkpt>
      <trkpt lat="49.57754" lon="4.93216">
        <ele>236.14</ele>
        <time>2018-06-03T09:01:05Z</time>
      </trkpt>
      <trkpt lat="49.57771" lon="4.93232">
        <ele>239.51</ele>
        <time>2018-06-03T09:01:22Z</time>
      </trkpt>
      <trkpt lat="49.57782" lon="4.93242">
        <ele>239.99</ele>
        <time>2018-06-03T09:01:38Z</time>
      </trkpt>
      <trkpt lat="49.57784" lon="4.93243">
        <ele>239.51</ele>
        <time>2018-06-03T09:01:49Z</time>
      </trkpt>
      <trkpt lat="49.57796" lon="4.93253">
        <ele>239.99</ele>
        <time>2018-06-03T09:02:02Z</time>
      </trkpt>
      <trkpt lat="49.57814" lon="4.93267">
        <ele>240.47</ele>
        <time>2018-06-03T09:02:21Z</time>
      </trkpt>
      <trkpt lat="49.57833" lon="4.93281">
        <ele>241.43</ele>
        <time>2018-06-03T09:02:39Z</time>
      </trkpt>
      <trkpt lat="49.57851" lon="4.93295">
        <ele>244.31</ele>
        <time>2018-06-03T09:02:57Z</time>
      </trkpt>
      <trkpt lat="49.57868" lon="4.93308">
        <ele>244.79</ele>
        <time>2018-06-03T09:03:13Z</time>
      </trkpt>
      <trkpt lat="49.57885" lon="4.93322">
        <ele>245.75</ele>
        <time>2018-06-03T09:03:30Z</time>
      </trkpt>
      <trkpt lat="49.57906" lon="4.93339">
        <ele>246.72</ele>
        <time>2018-06-03T09:03:50Z</time>
      </trkpt>
      <trkpt lat="49.57927" lon="4.93355">
        <ele>248.64</ele>
        <time>2018-06-03T09:04:09Z</time>
      </trkpt>
      <trkpt lat="49.57945" lon="4.93371">
        <ele>250.08</ele>
        <time>2018-06-03T09:04:28Z</time>
      </trkpt>
      <trkpt lat="49.57968" lon="4.9339">
        <ele>246.72</ele>
        <time>2018-06-03T09:04:50Z</time>
      </trkpt>
      <trkpt lat="49.57986" lon="4.93404">
        <ele>245.27</ele>
        <time>2018-06-03T09:05:07Z</time>
      </trkpt>
      <trkpt lat="49.58003" lon="4.9342">
        <ele>242.39</ele>
        <time>2018-06-03T09:05:25Z</time>
      </trkpt>
      <trkpt lat="49.58018" lon="4.93432">
        <ele>241.43</ele>
        <time>2018-06-03T09:05:40Z</time>
      </trkpt>
      <trkpt lat="49.58035" lon="4.93441">
        <ele>241.43</ele>
        <time>2018-06-03T09:05:56Z</time>
      </trkpt>
      <trkpt lat="49.58039" lon="4.93441">
        <ele>244.31</ele>
        <time>2018-06-03T09:06:15Z</time>
      </trkpt>
      <trkpt lat="49.58045" lon="4.93441">
        <ele>245.27</ele>
        <time>2018-06-03T09:06:25Z</time>
      </trkpt>
      <trkpt lat="49.58064" lon="4.93437">
        <ele>246.23</ele>
        <time>2018-06-03T09:06:42Z</time>
      </trkpt>
      <trkpt lat="49.58069" lon="4.93437">
        <ele>248.64</ele>
        <time>2018-06-03T09:06:58Z</time>
      </trkpt>
      <trkpt lat="49.5808" lon="4.93432">
        <ele>249.12</ele>
        <time>2018-06-03T09:07:13Z</time>
      </trkpt>
      <trkpt lat="49.58081" lon="4.93432">
        <ele>249.12</ele>
        <time>2018-06-03T09:07:14Z</time>
      </trkpt>
      <trkpt lat="49.58096" lon="4.93421">
        <ele>248.16</ele>
        <time>2018-06-03T09:07:26Z</time>
      </trkpt>
      <trkpt lat="49.58116" lon="4.93413">
        <ele>247.68</ele>
        <time>2018-06-03T09:07:44Z</time>
      </trkpt>
      <trkpt lat="49.58137" lon="4.93401">
        <ele>247.68</ele>
        <time>2018-06-03T09:08:00Z</time>
      </trkpt>
      <trkpt lat="49.58156" lon="4.93392">
        <ele>245.27</ele>
        <time>2018-06-03T09:08:17Z</time>
      </trkpt>
      <trkpt lat="49.58174" lon="4.93385">
        <ele>243.35</ele>
        <time>2018-06-03T09:08:34Z</time>
      </trkpt>
      <trkpt lat="49.58191" lon="4.93379">
        <ele>244.31</ele>
        <time>2018-06-03T09:08:49Z</time>
      </trkpt>
      <trkpt lat="49.58206" lon="4.93377">
        <ele>245.27</ele>
        <time>2018-06-03T09:09:05Z</time>
      </trkpt>
      <trkpt lat="49.58211" lon="4.93378">
        <ele>249.6</ele>
        <time>2018-06-03T09:09:21Z</time>
      </trkpt>
      <trkpt lat="49.58222" lon="4.93382">
        <ele>250.08</ele>
        <time>2018-06-03T09:09:33Z</time>
      </trkpt>
      <trkpt lat="49.58244" lon="4.93397">
        <ele>251.52</ele>
        <time>2018-06-03T09:09:52Z</time>
      </trkpt>
      <trkpt lat="49.58258" lon="4.93408">
        <ele>252.48</ele>
        <time>2018-06-03T09:10:12Z</time>
      </trkpt>
      <trkpt lat="49.58269" lon="4.93414">
        <ele>252</ele>
        <time>2018-06-03T09:10:29Z</time>
      </trkpt>
      <trkpt lat="49.58284" lon="4.93426">
        <ele>250.56</ele>
        <time>2018-06-03T09:10:47Z</time>
      </trkpt>
      <trkpt lat="49.58288" lon="4.93428">
        <ele>248.64</ele>
        <time>2018-06-03T09:11:04Z</time>
      </trkpt>
      <trkpt lat="49.58301" lon="4.93441">
        <ele>246.23</ele>
        <time>2018-06-03T09:11:23Z</time>
      </trkpt>
      <trkpt lat="49.58314" lon="4.93456">
        <ele>246.23</ele>
        <time>2018-06-03T09:11:40Z</time>
      </trkpt>
      <trkpt lat="49.58336" lon="4.93483">
        <ele>241.91</ele>
        <time>2018-06-03T09:11:59Z</time>
      </trkpt>
      <trkpt lat="49.5835" lon="4.935">
        <ele>241.43</ele>
        <time>2018-06-03T09:12:16Z</time>
      </trkpt>
      <trkpt lat="49.58354" lon="4.93507">
        <ele>240.95</ele>
        <time>2018-06-03T09:12:35Z</time>
      </trkpt>
      <trkpt lat="49.58359" lon="4.93514">
        <ele>241.43</ele>
        <time>2018-06-03T09:12:48Z</time>
      </trkpt>
      <trkpt lat="49.58368" lon="4.93525">
        <ele>241.91</ele>
        <time>2018-06-03T09:13:01Z</time>
      </trkpt>
      <trkpt lat="49.58387" lon="4.93545">
        <ele>242.87</ele>
        <time>2018-06-03T09:13:20Z</time>
      </trkpt>
      <trkpt lat="49.58403" lon="4.93559">
        <ele>244.31</ele>
        <time>2018-06-03T09:13:38Z</time>
      </trkpt>
      <trkpt lat="49.58411" lon="4.93567">
        <ele>245.75</ele>
        <time>2018-06-03T09:13:49Z</time>
      </trkpt>
      <trkpt lat="49.58429" lon="4.93582">
        <ele>245.75</ele>
        <time>2018-06-03T09:14:07Z</time>
      </trkpt>
      <trkpt lat="49.58449" lon="4.93598">
        <ele>246.72</ele>
        <time>2018-06-03T09:14:26Z</time>
      </trkpt>
      <trkpt lat="49.58469" lon="4.93612">
        <ele>248.16</ele>
        <time>2018-06-03T09:14:42Z</time>
      </trkpt>
      <trkpt lat="49.58488" lon="4.93623">
        <ele>247.68</ele>
        <time>2018-06-03T09:15:01Z</time>
      </trkpt>
      <trkpt lat="49.58489" lon="4.93625">
        <ele>247.68</ele>
        <time>2018-06-03T09:15:17Z</time>
      </trkpt>
      <trkpt lat="49.58505" lon="4.93635">
        <ele>248.64</ele>
        <time>2018-06-03T09:15:32Z</time>
      </trkpt>
      <trkpt lat="49.58527" lon="4.93651">
        <ele>250.08</ele>
        <time>2018-06-03T09:15:50Z</time>
      </trkpt>
      <trkpt lat="49.58545" lon="4.93661">
        <ele>249.6</ele>
        <time>2018-06-03T09:16:07Z</time>
      </trkpt>
      <trkpt lat="49.58566" lon="4.93673">
        <ele>249.12</ele>
        <time>2018-06-03T09:16:26Z</time>
      </trkpt>
      <trkpt lat="49.58583" lon="4.93683">
        <ele>251.04</ele>
        <time>2018-06-03T09:16:44Z</time>
      </trkpt>
      <trkpt lat="49.58596" lon="4.93689">
        <ele>251.04</ele>
        <time>2018-06-03T09:17:01Z</time>
      </trkpt>
      <trkpt lat="49.58602" lon="4.9369">
        <ele>249.6</ele>
        <time>2018-06-03T09:17:17Z</time>
      </trkpt>
      <trkpt lat="49.58617" lon="4.93695">
        <ele>249.6</ele>
        <time>2018-06-03T09:17:32Z</time>
      </trkpt>
      <trkpt lat="49.58636" lon="4.93701">
        <ele>252.48</ele>
        <time>2018-06-03T09:17:48Z</time>
      </trkpt>
      <trkpt lat="49.58656" lon="4.93707">
        <ele>253.93</ele>
        <time>2018-06-03T09:18:05Z</time>
      </trkpt>
      <trkpt lat="49.58678" lon="4.93714">
        <ele>254.41</ele>
        <time>2018-06-03T09:18:23Z</time>
      </trkpt>
      <trkpt lat="49.58701" lon="4.9372">
        <ele>251.52</ele>
        <time>2018-06-03T09:18:42Z</time>
      </trkpt>
      <trkpt lat="49.58723" lon="4.93726">
        <ele>250.56</ele>
        <time>2018-06-03T09:19:02Z</time>
      </trkpt>
      <trkpt lat="49.58744" lon="4.93734">
        <ele>250.56</ele>
        <time>2018-06-03T09:19:21Z</time>
      </trkpt>
      <trkpt lat="49.58766" lon="4.9375">
        <ele>252</ele>
        <time>2018-06-03T09:19:40Z</time>
      </trkpt>
      <trkpt lat="49.5878" lon="4.93768">
        <ele>252</ele>
        <time>2018-06-03T09:19:56Z</time>
      </trkpt>
      <trkpt lat="49.58797" lon="4.93797">
        <ele>252.48</ele>
        <time>2018-06-03T09:20:17Z</time>
      </trkpt>
      <trkpt lat="49.58816" lon="4.93825">
        <ele>252</ele>
        <time>2018-06-03T09:20:38Z</time>
      </trkpt>
      <trkpt lat="49.58832" lon="4.93839">
        <ele>249.12</ele>
        <time>2018-06-03T09:20:56Z</time>
      </trkpt>
      <trkpt lat="49.58851" lon="4.93855">
        <ele>250.08</ele>
        <time>2018-06-03T09:21:16Z</time>
      </trkpt>
      <trkpt lat="49.58862" lon="4.93862">
        <ele>250.08</ele>
        <time>2018-06-03T09:21:30Z</time>
      </trkpt>
      <trkpt lat="49.58883" lon="4.93872">
        <ele>249.6</ele>
        <time>2018-06-03T09:21:49Z</time>
      </trkpt>
      <trkpt lat="49.58905" lon="4.93886">
        <ele>249.6</ele>
        <time>2018-06-03T09:22:10Z</time>
      </trkpt>
      <trkpt lat="49.58925" lon="4.93903">
        <ele>248.16</ele>
        <time>2018-06-03T09:22:29Z</time>
      </trkpt>
      <trkpt lat="49.58941" lon="4.93924">
        <ele>247.68</ele>
        <time>2018-06-03T09:22:51Z</time>
      </trkpt>
      <trkpt lat="49.58962" lon="4.93946">
        <ele>248.16</ele>
        <time>2018-06-03T09:23:13Z</time>
      </trkpt>
      <trkpt lat="49.58983" lon="4.93959">
        <ele>247.68</ele>
        <time>2018-06-03T09:23:32Z</time>
      </trkpt>
      <trkpt lat="49.58996" lon="4.9397">
        <ele>245.75</ele>
        <time>2018-06-03T09:23:43Z</time>
      </trkpt>
      <trkpt lat="49.59003" lon="4.93974">
        <ele>244.31</ele>
        <time>2018-06-03T09:23:49Z</time>
      </trkpt>
      <trkpt lat="49.59024" lon="4.93983">
        <ele>239.99</ele>
        <time>2018-06-03T09:24:08Z</time>
      </trkpt>
      <trkpt lat="49.59029" lon="4.93985">
        <ele>238.54</ele>
        <time>2018-06-03T09:24:22Z</time>
      </trkpt>
      <trkpt lat="49.59048" lon="4.93997">
        <ele>235.66</ele>
        <time>2018-06-03T09:24:41Z</time>
      </trkpt>
      <trkpt lat="49.59069" lon="4.94008">
        <ele>233.26</ele>
        <time>2018-06-03T09:25:02Z</time>
      </trkpt>
      <trkpt lat="49.59087" lon="4.94019">
        <ele>231.33</ele>
        <time>2018-06-03T09:25:19Z</time>
      </trkpt>
      <trkpt lat="49.59096" lon="4.94023">
        <ele>231.33</ele>
        <time>2018-06-03T09:25:32Z</time>
      </trkpt>
      <trkpt lat="49.5911" lon="4.9403">
        <ele>229.41</ele>
        <time>2018-06-03T09:25:51Z</time>
      </trkpt>
      <trkpt lat="49.59127" lon="4.94041">
        <ele>229.41</ele>
        <time>2018-06-03T09:26:08Z</time>
      </trkpt>
      <trkpt lat="49.59141" lon="4.94052">
        <ele>228.45</ele>
        <time>2018-06-03T09:26:26Z</time>
      </trkpt>
      <trkpt lat="49.59153" lon="4.9407">
        <ele>228.93</ele>
        <time>2018-06-03T09:26:43Z</time>
      </trkpt>
      <trkpt lat="49.59162" lon="4.94092">
        <ele>231.81</ele>
        <time>2018-06-03T09:27:01Z</time>
      </trkpt>
      <trkpt lat="49.59168" lon="4.94101">
        <ele>231.33</ele>
        <time>2018-06-03T09:27:18Z</time>
      </trkpt>
      <trkpt lat="49.59173" lon="4.94109">
        <ele>229.89</ele>
        <time>2018-06-03T09:27:40Z</time>
      </trkpt>
      <trkpt lat="49.59187" lon="4.94138">
        <ele>230.37</ele>
        <time>2018-06-03T09:28:00Z</time>
      </trkpt>
      <trkpt lat="49.59204" lon="4.94163">
        <ele>233.74</ele>
        <time>2018-06-03T09:28:20Z</time>
      </trkpt>
      <trkpt lat="49.5921" lon="4.94171">
        <ele>233.26</ele>
        <time>2018-06-03T09:28:37Z</time>
      </trkpt>
      <trkpt lat="49.59218" lon="4.94179">
        <ele>232.3</ele>
        <time>2018-06-03T09:28:53Z</time>
      </trkpt>
      <trkpt lat="49.59234" lon="4.94201">
        <ele>232.3</ele>
        <time>2018-06-03T09:29:11Z</time>
      </trkpt>
      <trkpt lat="49.59246" lon="4.94213">
        <ele>230.37</ele>
        <time>2018-06-03T09:29:29Z</time>
      </trkpt>
      <trkpt lat="49.5925" lon="4.94222">
        <ele>230.37</ele>
        <time>2018-06-03T09:29:48Z</time>
      </trkpt>
      <trkpt lat="49.59261" lon="4.9424">
        <ele>229.41</ele>
        <time>2018-06-03T09:30:04Z</time>
      </trkpt>
      <trkpt lat="49.59262" lon="4.94244">
        <ele>232.3</ele>
        <time>2018-06-03T09:30:28Z</time>
      </trkpt>
      <trkpt lat="49.59262" lon="4.94244">
        <ele>231.81</ele>
        <time>2018-06-03T09:30:48Z</time>
      </trkpt>
      <trkpt lat="49.59262" lon="4.94243">
        <ele>231.81</ele>
        <time>2018-06-03T09:31:14Z</time>
      </trkpt>
      <trkpt lat="49.59262" lon="4.94242">
        <ele>231.33</ele>
        <time>2018-06-03T09:31:39Z</time>
      </trkpt>
      <trkpt lat="49.59261" lon="4.94242">
        <ele>230.85</ele>
        <time>2018-06-03T09:32:01Z</time>
      </trkpt>
      <trkpt lat="49.5926" lon="4.94242">
        <ele>230.37</ele>
        <time>2018-06-03T09:32:26Z</time>
      </trkpt>
      <trkpt lat="49.5926" lon="4.94242">
        <ele>230.37</ele>
        <time>2018-06-03T09:32:49Z</time>
      </trkpt>
      <trkpt lat="49.5926" lon="4.9424">
        <ele>227.97</ele>
        <time>2018-06-03T09:33:21Z</time>
      </trkpt>
      <trkpt lat="49.59259" lon="4.94239">
        <ele>227.97</ele>
        <time>2018-06-03T09:33:48Z</time>
      </trkpt>
      <trkpt lat="49.5926" lon="4.94239">
        <ele>228.45</ele>
        <time>2018-06-03T09:34:19Z</time>
      </trkpt>
      <trkpt lat="49.5926" lon="4.94238">
        <ele>228.45</ele>
        <time>2018-06-03T09:34:46Z</time>
      </trkpt>
      <trkpt lat="49.5926" lon="4.94238">
        <ele>228.45</ele>
        <time>2018-06-03T09:35:11Z</time>
      </trkpt>
      <trkpt lat="49.59259" lon="4.94238">
        <ele>227.97</ele>
        <time>2018-06-03T09:35:35Z</time>
      </trkpt>
      <trkpt lat="49.59257" lon="4.94233">
        <ele>227.97</ele>
        <time>2018-06-03T09:35:54Z</time>
      </trkpt>
      <trkpt lat="49.59245" lon="4.9421">
        <ele>227.97</ele>
        <time>2018-06-03T09:36:15Z</time>
      </trkpt>
      <trkpt lat="49.59239" lon="4.942">
        <ele>228.45</ele>
        <time>2018-06-03T09:36:36Z</time>
      </trkpt>
      <trkpt lat="49.59225" lon="4.94183">
        <ele>228.93</ele>
        <time>2018-06-03T09:36:53Z</time>
      </trkpt>
      <trkpt lat="49.59217" lon="4.94174">
        <ele>230.37</ele>
        <time>2018-06-03T09:37:07Z</time>
      </trkpt>
      <trkpt lat="49.59212" lon="4.94169">
        <ele>230.85</ele>
        <time>2018-06-03T09:37:11Z</time>
      </trkpt>
      <trkpt lat="49.59194" lon="4.94147">
        <ele>227.97</ele>
        <time>2018-06-03T09:37:29Z</time>
      </trkpt>
      <trkpt lat="49.59179" lon="4.94119">
        <ele>224.61</ele>
        <time>2018-06-03T09:37:49Z</time>
      </trkpt>
      <trkpt lat="49.59172" lon="4.94106">
        <ele>222.68</ele>
        <time>2018-06-03T09:38:06Z</time>
      </trkpt>
      <trkpt lat="49.59171" lon="4.94107">
        <ele>222.68</ele>
        <time>2018-06-03T09:38:08Z</time>
      </trkpt>
      <trkpt lat="49.59173" lon="4.94123">
        <ele>222.2</ele>
        <time>2018-06-03T09:38:23Z</time>
      </trkpt>
      <trkpt lat="49.59174" lon="4.94122">
        <ele>223.64</ele>
        <time>2018-06-03T09:38:43Z</time>
      </trkpt>
      <trkpt lat="49.59177" lon="4.94132">
        <ele>223.16</ele>
        <time>2018-06-03T09:38:57Z</time>
      </trkpt>
      <trkpt lat="49.59183" lon="4.94147">
        <ele>222.68</ele>
        <time>2018-06-03T09:39:12Z</time>
      </trkpt>
      <trkpt lat="49.5919" lon="4.94162">
        <ele>223.16</ele>
        <time>2018-06-03T09:39:28Z</time>
      </trkpt>
      <trkpt lat="49.59194" lon="4.9417">
        <ele>224.12</ele>
        <time>2018-06-03T09:39:42Z</time>
      </trkpt>
      <trkpt lat="49.59196" lon="4.94177">
        <ele>224.61</ele>
        <time>2018-06-03T09:39:56Z</time>
      </trkpt>
      <trkpt lat="49.59208" lon="4.94196">
        <ele>223.16</ele>
        <time>2018-06-03T09:40:13Z</time>
      </trkpt>
      <trkpt lat="49.5922" lon="4.94219">
        <ele>220.76</ele>
        <time>2018-06-03T09:40:29Z</time>
      </trkpt>
      <trkpt lat="49.59231" lon="4.94251">
        <ele>219.32</ele>
        <time>2018-06-03T09:40:50Z</time>
      </trkpt>
      <trkpt lat="49.59234" lon="4.94263">
        <ele>217.4</ele>
        <time>2018-06-03T09:41:10Z</time>
      </trkpt>
      <trkpt lat="49.59239" lon="4.94284">
        <ele>214.51</ele>
        <time>2018-06-03T09:41:26Z</time>
      </trkpt>
      <trkpt lat="49.5924" lon="4.94286">
        <ele>214.51</ele>
        <time>2018-06-03T09:41:29Z</time>
      </trkpt>
      <trkpt lat="49.59245" lon="4.94325">
        <ele>215.95</ele>
        <time>2018-06-03T09:41:48Z</time>
      </trkpt>
      <trkpt lat="49.59248" lon="4.94365">
        <ele>216.43</ele>
        <time>2018-06-03T09:42:08Z</time>
      </trkpt>
      <trkpt lat="49.59252" lon="4.94398">
        <ele>216.91</ele>
        <time>2018-06-03T09:42:25Z</time>
      </trkpt>
      <trkpt lat="49.59255" lon="4.94429">
        <ele>214.03</ele>
        <time>2018-06-03T09:42:41Z</time>
      </trkpt>
      <trkpt lat="49.59259" lon="4.94454">
        <ele>211.63</ele>
        <time>2018-06-03T09:42:57Z</time>
      </trkpt>
      <trkpt lat="49.59261" lon="4.94465">
        <ele>212.59</ele>
        <time>2018-06-03T09:43:13Z</time>
      </trkpt>
      <trkpt lat="49.59261" lon="4.94465">
        <ele>214.03</ele>
        <time>2018-06-03T09:43:38Z</time>
      </trkpt>
      <trkpt lat="49.59259" lon="4.94491">
        <ele>215.95</ele>
        <time>2018-06-03T09:43:52Z</time>
      </trkpt>
      <trkpt lat="49.59261" lon="4.94518">
        <ele>217.4</ele>
        <time>2018-06-03T09:44:08Z</time>
      </trkpt>
      <trkpt lat="49.5926" lon="4.94552">
        <ele>215.95</ele>
        <time>2018-06-03T09:44:27Z</time>
      </trkpt>
      <trkpt lat="49.5926" lon="4.94581">
        <ele>215.95</ele>
        <time>2018-06-03T09:44:45Z</time>
      </trkpt>
      <trkpt lat="49.5926" lon="4.9461">
        <ele>213.55</ele>
        <time>2018-06-03T09:45:03Z</time>
      </trkpt>
      <trkpt lat="49.59261" lon="4.94626">
        <ele>212.11</ele>
        <time>2018-06-03T09:45:18Z</time>
      </trkpt>
      <trkpt lat="49.5926" lon="4.94652">
        <ele>211.63</ele>
        <time>2018-06-03T09:45:35Z</time>
      </trkpt>
      <trkpt lat="49.59263" lon="4.94684">
        <ele>209.7</ele>
        <time>2018-06-03T09:45:55Z</time>
      </trkpt>
      <trkpt lat="49.59263" lon="4.94696">
        <ele>210.67</ele>
        <time>2018-06-03T09:46:12Z</time>
      </trkpt>
      <trkpt lat="49.59263" lon="4.9472">
        <ele>208.26</ele>
        <time>2018-06-03T09:46:28Z</time>
      </trkpt>
      <trkpt lat="49.59262" lon="4.94733">
        <ele>209.7</ele>
        <time>2018-06-03T09:46:39Z</time>
      </trkpt>
      <trkpt lat="49.59263" lon="4.94765">
        <ele>210.19</ele>
        <time>2018-06-03T09:46:58Z</time>
      </trkpt>
      <trkpt lat="49.59265" lon="4.94801">
        <ele>209.7</ele>
        <time>2018-06-03T09:47:18Z</time>
      </trkpt>
      <trkpt lat="49.59268" lon="4.94831">
        <ele>208.74</ele>
        <time>2018-06-03T09:47:37Z</time>
      </trkpt>
      <trkpt lat="49.59272" lon="4.9486">
        <ele>207.78</ele>
        <time>2018-06-03T09:47:55Z</time>
      </trkpt>
      <trkpt lat="49.59274" lon="4.9489">
        <ele>208.26</ele>
        <time>2018-06-03T09:48:11Z</time>
      </trkpt>
      <trkpt lat="49.59279" lon="4.9492">
        <ele>206.82</ele>
        <time>2018-06-03T09:48:29Z</time>
      </trkpt>
      <trkpt lat="49.5928" lon="4.94947">
        <ele>208.26</ele>
        <time>2018-06-03T09:48:44Z</time>
      </trkpt>
      <trkpt lat="49.5928" lon="4.9495">
        <ele>208.26</ele>
        <time>2018-06-03T09:48:45Z</time>
      </trkpt>
      <trkpt lat="49.59285" lon="4.94982">
        <ele>207.3</ele>
        <time>2018-06-03T09:49:02Z</time>
      </trkpt>
      <trkpt lat="49.59287" lon="4.95006">
        <ele>207.78</ele>
        <time>2018-06-03T09:49:18Z</time>
      </trkpt>
      <trkpt lat="49.5929" lon="4.95043">
        <ele>207.3</ele>
        <time>2018-06-03T09:49:37Z</time>
      </trkpt>
      <trkpt lat="49.59295" lon="4.9508">
        <ele>204.42</ele>
        <time>2018-06-03T09:49:58Z</time>
      </trkpt>
      <trkpt lat="49.59296" lon="4.9509">
        <ele>203.94</ele>
        <time>2018-06-03T09:50:12Z</time>
      </trkpt>
      <trkpt lat="49.59297" lon="4.95094">
        <ele>204.42</ele>
        <time>2018-06-03T09:50:29Z</time>
      </trkpt>
      <trkpt lat="49.59301" lon="4.95123">
        <ele>203.94</ele>
        <time>2018-06-03T09:50:46Z</time>
      </trkpt>
      <trkpt lat="49.59305" lon="4.95145">
        <ele>204.9</ele>
        <time>2018-06-03T09:51:04Z</time>
      </trkpt>
      <trkpt lat="49.59306" lon="4.95149">
        <ele>205.38</ele>
        <time>2018-06-03T09:51:20Z</time>
      </trkpt>
      <trkpt lat="49.59308" lon="4.95163">
        <ele>204.9</ele>
        <time>2018-06-03T09:51:38Z</time>
      </trkpt>
      <trkpt lat="49.59314" lon="4.95194">
        <ele>204.42</ele>
        <time>2018-06-03T09:51:56Z</time>
      </trkpt>
      <trkpt lat="49.59324" lon="4.95229">
        <ele>202.98</ele>
        <time>2018-06-03T09:52:17Z</time>
      </trkpt>
      <trkpt lat="49.59333" lon="4.95254">
        <ele>199.13</ele>
        <time>2018-06-03T09:52:33Z</time>
      </trkpt>
      <trkpt lat="49.59342" lon="4.95285">
        <ele>198.65</ele>
        <time>2018-06-03T09:52:51Z</time>
      </trkpt>
      <trkpt lat="49.59346" lon="4.95296">
        <ele>198.65</ele>
        <time>2018-06-03T09:53:03Z</time>
      </trkpt>
      <trkpt lat="49.5935" lon="4.95311">
        <ele>198.17</ele>
        <time>2018-06-03T09:53:14Z</time>
      </trkpt>
      <trkpt lat="49.59358" lon="4.95342">
        <ele>198.65</ele>
        <time>2018-06-03T09:53:32Z</time>
      </trkpt>
      <trkpt lat="49.59361" lon="4.95349">
        <ele>200.09</ele>
        <time>2018-06-03T09:53:48Z</time>
      </trkpt>
      <trkpt lat="49.59362" lon="4.9535">
        <ele>199.61</ele>
        <time>2018-06-03T09:53:49Z</time>
      </trkpt>
      <trkpt lat="49.59363" lon="4.95352">
        <ele>199.61</ele>
        <time>2018-06-03T09:53:51Z</time>
      </trkpt>
      <trkpt lat="49.59371" lon="4.9538">
        <ele>199.61</ele>
        <time>2018-06-03T09:54:10Z</time>
      </trkpt>
      <trkpt lat="49.59376" lon="4.95394">
        <ele>200.09</ele>
        <time>2018-06-03T09:54:23Z</time>
      </trkpt>
      <trkpt lat="49.59385" lon="4.95423">
        <ele>201.05</ele>
        <time>2018-06-03T09:54:40Z</time>
      </trkpt>
      <trkpt lat="49.59398" lon="4.95453">
        <ele>200.09</ele>
        <time>2018-06-03T09:55:00Z</time>
      </trkpt>
      <trkpt lat="49.594" lon="4.95457">
        <ele>200.09</ele>
        <time>2018-06-03T09:55:03Z</time>
      </trkpt>
      <trkpt lat="49.59416" lon="4.95476">
        <ele>201.53</ele>
        <time>2018-06-03T09:55:21Z</time>
      </trkpt>
      <trkpt lat="49.59429" lon="4.95491">
        <ele>201.53</ele>
        <time>2018-06-03T09:55:36Z</time>
      </trkpt>
      <trkpt lat="49.5945" lon="4.95503">
        <ele>200.57</ele>
        <time>2018-06-03T09:55:54Z</time>
      </trkpt>
      <trkpt lat="49.59475" lon="4.95509">
        <ele>201.53</ele>
        <time>2018-06-03T09:56:13Z</time>
      </trkpt>
      <trkpt lat="49.59504" lon="4.95505">
        <ele>200.09</ele>
        <time>2018-06-03T09:56:35Z</time>
      </trkpt>
      <trkpt lat="49.59529" lon="4.95498">
        <ele>195.77</ele>
        <time>2018-06-03T09:56:55Z</time>
      </trkpt>
      <trkpt lat="49.59543" lon="4.95492">
        <ele>193.84</ele>
        <time>2018-06-03T09:57:11Z</time>
      </trkpt>
      <trkpt lat="49.59566" lon="4.9549">
        <ele>196.25</ele>
        <time>2018-06-03T09:57:31Z</time>
      </trkpt>
      <trkpt lat="49.5959" lon="4.95486">
        <ele>196.25</ele>
        <time>2018-06-03T09:57:52Z</time>
      </trkpt>
      <trkpt lat="49.59613" lon="4.95487">
        <ele>197.69</ele>
        <time>2018-06-03T09:58:12Z</time>
      </trkpt>
      <trkpt lat="49.59631" lon="4.95489">
        <ele>197.69</ele>
        <time>2018-06-03T09:58:28Z</time>
      </trkpt>
      <trkpt lat="49.59651" lon="4.95493">
        <ele>197.21</ele>
        <time>2018-06-03T09:58:46Z</time>
      </trkpt>
      <trkpt lat="49.5967" lon="4.95493">
        <ele>198.17</ele>
        <time>2018-06-03T09:59:03Z</time>
      </trkpt>
      <trkpt lat="49.59692" lon="4.95495">
        <ele>198.17</ele>
        <time>2018-06-03T09:59:20Z</time>
      </trkpt>
      <trkpt lat="49.5971" lon="4.95496">
        <ele>198.65</ele>
        <time>2018-06-03T09:59:36Z</time>
      </trkpt>
      <trkpt lat="49.59731" lon="4.95499">
        <ele>199.61</ele>
        <time>2018-06-03T09:59:55Z</time>
      </trkpt>
      <trkpt lat="49.59736" lon="4.955">
        <ele>199.13</ele>
        <time>2018-06-03T10:00:08Z</time>
      </trkpt>
      <trkpt lat="49.59739" lon="4.95499">
        <ele>197.69</ele>
        <time>2018-06-03T10:00:24Z</time>
      </trkpt>
      <trkpt lat="49.59743" lon="4.95499">
        <ele>197.21</ele>
        <time>2018-06-03T10:00:45Z</time>
      </trkpt>
      <trkpt lat="49.59758" lon="4.95499">
        <ele>195.77</ele>
        <time>2018-06-03T10:00:59Z</time>
      </trkpt>
      <trkpt lat="49.59787" lon="4.95497">
        <ele>197.21</ele>
        <time>2018-06-03T10:01:22Z</time>
      </trkpt>
      <trkpt lat="49.5981" lon="4.95494">
        <ele>194.32</ele>
        <time>2018-06-03T10:01:40Z</time>
      </trkpt>
      <trkpt lat="49.59829" lon="4.95488">
        <ele>190.96</ele>
        <time>2018-06-03T10:01:56Z</time>
      </trkpt>
      <trkpt lat="49.59847" lon="4.95483">
        <ele>190.96</ele>
        <time>2018-06-03T10:02:14Z</time>
      </trkpt>
      <trkpt lat="49.59848" lon="4.95482">
        <ele>194.8</ele>
        <time>2018-06-03T10:02:25Z</time>
      </trkpt>
      <trkpt lat="49.59851" lon="4.95483">
        <ele>194.8</ele>
        <time>2018-06-03T10:02:41Z</time>
      </trkpt>
      <trkpt lat="49.59859" lon="4.95481">
        <ele>192.88</ele>
        <time>2018-06-03T10:02:58Z</time>
      </trkpt>
      <trkpt lat="49.59877" lon="4.95476">
        <ele>192.4</ele>
        <time>2018-06-03T10:03:15Z</time>
      </trkpt>
      <trkpt lat="49.5988" lon="4.95475">
        <ele>193.36</ele>
        <time>2018-06-03T10:03:30Z</time>
      </trkpt>
      <trkpt lat="49.59881" lon="4.95474">
        <ele>193.36</ele>
        <time>2018-06-03T10:03:31Z</time>
      </trkpt>
      <trkpt lat="49.59901" lon="4.95469">
        <ele>194.8</ele>
        <time>2018-06-03T10:03:49Z</time>
      </trkpt>
      <trkpt lat="49.59922" lon="4.95469">
        <ele>194.8</ele>
        <time>2018-06-03T10:04:07Z</time>
      </trkpt>
      <trkpt lat="49.59928" lon="4.95471">
        <ele>193.84</ele>
        <time>2018-06-03T10:04:14Z</time>
      </trkpt>
      <trkpt lat="49.59935" lon="4.9548">
        <ele>191.92</ele>
        <time>2018-06-03T10:04:22Z</time>
      </trkpt>
      <trkpt lat="49.5995" lon="4.95485">
        <ele>189.04</ele>
        <time>2018-06-03T10:04:36Z</time>
      </trkpt>
      <trkpt lat="49.59965" lon="4.95496">
        <ele>190.48</ele>
        <time>2018-06-03T10:04:49Z</time>
      </trkpt>
      <trkpt lat="49.59971" lon="4.95499">
        <ele>191.44</ele>
        <time>2018-06-03T10:04:54Z</time>
      </trkpt>
      <trkpt lat="49.59993" lon="4.95505">
        <ele>194.8</ele>
        <time>2018-06-03T10:05:12Z</time>
      </trkpt>
      <trkpt lat="49.60015" lon="4.95514">
        <ele>199.13</ele>
        <time>2018-06-03T10:05:31Z</time>
      </trkpt>
      <trkpt lat="49.60033" lon="4.95518">
        <ele>203.46</ele>
        <time>2018-06-03T10:05:47Z</time>
      </trkpt>
      <trkpt lat="49.60045" lon="4.95535">
        <ele>205.38</ele>
        <time>2018-06-03T10:06:03Z</time>
      </trkpt>
      <trkpt lat="49.60052" lon="4.95538">
        <ele>205.38</ele>
        <time>2018-06-03T10:06:09Z</time>
      </trkpt>
      <trkpt lat="49.60067" lon="4.95547">
        <ele>202.01</ele>
        <time>2018-06-03T10:06:23Z</time>
      </trkpt>
      <trkpt lat="49.60083" lon="4.95558">
        <ele>197.69</ele>
        <time>2018-06-03T10:06:37Z</time>
      </trkpt>
      <trkpt lat="49.60096" lon="4.95565">
        <ele>195.28</ele>
        <time>2018-06-03T10:06:52Z</time>
      </trkpt>
      <trkpt lat="49.60114" lon="4.95572">
        <ele>194.32</ele>
        <time>2018-06-03T10:07:08Z</time>
      </trkpt>
      <trkpt lat="49.60134" lon="4.95573">
        <ele>191.44</ele>
        <time>2018-06-03T10:07:25Z</time>
      </trkpt>
      <trkpt lat="49.60151" lon="4.95573">
        <ele>191.44</ele>
        <time>2018-06-03T10:07:42Z</time>
      </trkpt>
      <trkpt lat="49.60175" lon="4.95571">
        <ele>194.8</ele>
        <time>2018-06-03T10:08:03Z</time>
      </trkpt>
      <trkpt lat="49.60184" lon="4.95572">
        <ele>194.32</ele>
        <time>2018-06-03T10:08:17Z</time>
      </trkpt>
      <trkpt lat="49.60205" lon="4.95571">
        <ele>196.25</ele>
        <time>2018-06-03T10:08:35Z</time>
      </trkpt>
      <trkpt lat="49.60207" lon="4.95573">
        <ele>196.25</ele>
        <time>2018-06-03T10:08:37Z</time>
      </trkpt>
      <trkpt lat="49.60213" lon="4.95582">
        <ele>196.73</ele>
        <time>2018-06-03T10:08:45Z</time>
      </trkpt>
      <trkpt lat="49.60222" lon="4.95586">
        <ele>197.21</ele>
        <time>2018-06-03T10:08:55Z</time>
      </trkpt>
      <trkpt lat="49.60245" lon="4.95589">
        <ele>199.13</ele>
        <time>2018-06-03T10:09:14Z</time>
      </trkpt>
      <trkpt lat="49.60263" lon="4.95601">
        <ele>197.69</ele>
        <time>2018-06-03T10:09:32Z</time>
      </trkpt>
      <trkpt lat="49.60264" lon="4.95602">
        <ele>197.69</ele>
        <time>2018-06-03T10:09:33Z</time>
      </trkpt>
      <trkpt lat="49.60265" lon="4.95604">
        <ele>197.21</ele>
        <time>2018-06-03T10:09:35Z</time>
      </trkpt>
      <trkpt lat="49.60271" lon="4.95611">
        <ele>196.73</ele>
        <time>2018-06-03T10:09:41Z</time>
      </trkpt>
      <trkpt lat="49.60288" lon="4.95627">
        <ele>193.36</ele>
        <time>2018-06-03T10:09:56Z</time>
      </trkpt>
      <trkpt lat="49.60303" lon="4.9564">
        <ele>193.84</ele>
        <time>2018-06-03T10:10:12Z</time>
      </trkpt>
      <trkpt lat="49.60321" lon="4.95656">
        <ele>194.32</ele>
        <time>2018-06-03T10:10:29Z</time>
      </trkpt>
      <trkpt lat="49.60336" lon="4.95677">
        <ele>192.88</ele>
        <time>2018-06-03T10:10:47Z</time>
      </trkpt>
      <trkpt lat="49.60356" lon="4.95699">
        <ele>189.04</ele>
        <time>2018-06-03T10:11:06Z</time>
      </trkpt>
      <trkpt lat="49.60377" lon="4.95713">
        <ele>190</ele>
        <time>2018-06-03T10:11:24Z</time>
      </trkpt>
      <trkpt lat="49.60398" lon="4.95721">
        <ele>190.96</ele>
        <time>2018-06-03T10:11:43Z</time>
      </trkpt>
      <trkpt lat="49.60422" lon="4.95714">
        <ele>193.36</ele>
        <time>2018-06-03T10:12:02Z</time>
      </trkpt>
      <trkpt lat="49.60444" lon="4.95697">
        <ele>192.88</ele>
        <time>2018-06-03T10:12:22Z</time>
      </trkpt>
      <trkpt lat="49.60465" lon="4.95675">
        <ele>193.36</ele>
        <time>2018-06-03T10:12:42Z</time>
      </trkpt>
      <trkpt lat="49.60477" lon="4.95655">
        <ele>192.88</ele>
        <time>2018-06-03T10:12:57Z</time>
      </trkpt>
      <trkpt lat="49.60492" lon="4.95642">
        <ele>193.84</ele>
        <time>2018-06-03T10:13:13Z</time>
      </trkpt>
      <trkpt lat="49.60509" lon="4.95633">
        <ele>191.44</ele>
        <time>2018-06-03T10:13:28Z</time>
      </trkpt>
      <trkpt lat="49.60524" lon="4.95621">
        <ele>189.52</ele>
        <time>2018-06-03T10:13:44Z</time>
      </trkpt>
      <trkpt lat="49.60528" lon="4.9562">
        <ele>190</ele>
        <time>2018-06-03T10:13:59Z</time>
      </trkpt>
      <trkpt lat="49.60538" lon="4.95612">
        <ele>190.48</ele>
        <time>2018-06-03T10:14:12Z</time>
      </trkpt>
      <trkpt lat="49.60557" lon="4.95594">
        <ele>192.4</ele>
        <time>2018-06-03T10:14:31Z</time>
      </trkpt>
      <trkpt lat="49.60579" lon="4.95584">
        <ele>193.36</ele>
        <time>2018-06-03T10:14:51Z</time>
      </trkpt>
      <trkpt lat="49.60606" lon="4.95571">
        <ele>195.28</ele>
        <time>2018-06-03T10:15:15Z</time>
      </trkpt>
      <trkpt lat="49.60621" lon="4.95561">
        <ele>199.61</ele>
        <time>2018-06-03T10:15:28Z</time>
      </trkpt>
      <trkpt lat="49.60637" lon="4.95543">
        <ele>197.69</ele>
        <time>2018-06-03T10:15:49Z</time>
      </trkpt>
      <trkpt lat="49.60652" lon="4.95526">
        <ele>192.88</ele>
        <time>2018-06-03T10:16:08Z</time>
      </trkpt>
      <trkpt lat="49.60655" lon="4.95521">
        <ele>192.88</ele>
        <time>2018-06-03T10:16:22Z</time>
      </trkpt>
      <trkpt lat="49.60674" lon="4.95505">
        <ele>191.92</ele>
        <time>2018-06-03T10:16:42Z</time>
      </trkpt>
      <trkpt lat="49.60684" lon="4.95498">
        <ele>191.44</ele>
        <time>2018-06-03T10:16:55Z</time>
      </trkpt>
      <trkpt lat="49.60705" lon="4.95483">
        <ele>187.59</ele>
        <time>2018-06-03T10:17:16Z</time>
      </trkpt>
      <trkpt lat="49.60726" lon="4.9547">
        <ele>182.79</ele>
        <time>2018-06-03T10:17:38Z</time>
      </trkpt>
      <trkpt lat="49.60747" lon="4.95459">
        <ele>185.19</ele>
        <time>2018-06-03T10:17:59Z</time>
      </trkpt>
      <trkpt lat="49.60769" lon="4.95453">
        <ele>187.59</ele>
        <time>2018-06-03T10:18:18Z</time>
      </trkpt>
      <trkpt lat="49.60792" lon="4.95452">
        <ele>187.59</ele>
        <time>2018-06-03T10:18:36Z</time>
      </trkpt>
      <trkpt lat="49.60811" lon="4.95451">
        <ele>188.56</ele>
        <time>2018-06-03T10:18:52Z</time>
      </trkpt>
      <trkpt lat="49.60831" lon="4.95454">
        <ele>189.52</ele>
        <time>2018-06-03T10:19:10Z</time>
      </trkpt>
      <trkpt lat="49.60852" lon="4.95461">
        <ele>187.59</ele>
        <time>2018-06-03T10:19:28Z</time>
      </trkpt>
      <trkpt lat="49.6087" lon="4.95469">
        <ele>186.63</ele>
        <time>2018-06-03T10:19:45Z</time>
      </trkpt>
      <trkpt lat="49.60891" lon="4.95472">
        <ele>188.08</ele>
        <time>2018-06-03T10:20:04Z</time>
      </trkpt>
      <trkpt lat="49.60909" lon="4.95482">
        <ele>188.56</ele>
        <time>2018-06-03T10:20:22Z</time>
      </trkpt>
      <trkpt lat="49.60917" lon="4.95487">
        <ele>187.11</ele>
        <time>2018-06-03T10:20:34Z</time>
      </trkpt>
      <trkpt lat="49.60931" lon="4.95497">
        <ele>186.15</ele>
        <time>2018-06-03T10:20:50Z</time>
      </trkpt>
      <trkpt lat="49.60946" lon="4.9551">
        <ele>183.27</ele>
        <time>2018-06-03T10:21:07Z</time>
      </trkpt>
      <trkpt lat="49.60962" lon="4.95519">
        <ele>181.83</ele>
        <time>2018-06-03T10:21:24Z</time>
      </trkpt>
      <trkpt lat="49.60983" lon="4.95534">
        <ele>182.31</ele>
        <time>2018-06-03T10:21:44Z</time>
      </trkpt>
      <trkpt lat="49.61003" lon="4.95549">
        <ele>184.23</ele>
        <time>2018-06-03T10:22:04Z</time>
      </trkpt>
      <trkpt lat="49.61025" lon="4.95559">
        <ele>185.67</ele>
        <time>2018-06-03T10:22:20Z</time>
      </trkpt>
      <trkpt lat="49.61039" lon="4.95569">
        <ele>184.71</ele>
        <time>2018-06-03T10:22:35Z</time>
      </trkpt>
      <trkpt lat="49.61057" lon="4.9558">
        <ele>184.23</ele>
        <time>2018-06-03T10:22:55Z</time>
      </trkpt>
      <trkpt lat="49.6108" lon="4.95598">
        <ele>185.67</ele>
        <time>2018-06-03T10:23:17Z</time>
      </trkpt>
      <trkpt lat="49.61098" lon="4.95606">
        <ele>184.23</ele>
        <time>2018-06-03T10:23:37Z</time>
      </trkpt>
      <trkpt lat="49.61115" lon="4.95609">
        <ele>180.87</ele>
        <time>2018-06-03T10:23:56Z</time>
      </trkpt>
      <trkpt lat="49.61124" lon="4.95614">
        <ele>179.42</ele>
        <time>2018-06-03T10:24:11Z</time>
      </trkpt>
      <trkpt lat="49.61142" lon="4.95629">
        <ele>181.35</ele>
        <time>2018-06-03T10:24:30Z</time>
      </trkpt>
      <trkpt lat="49.61157" lon="4.95637">
        <ele>181.35</ele>
        <time>2018-06-03T10:24:45Z</time>
      </trkpt>
      <trkpt lat="49.61171" lon="4.95649">
        <ele>182.31</ele>
        <time>2018-06-03T10:24:59Z</time>
      </trkpt>
      <trkpt lat="49.61187" lon="4.95662">
        <ele>181.83</ele>
        <time>2018-06-03T10:25:16Z</time>
      </trkpt>
      <trkpt lat="49.61204" lon="4.95673">
        <ele>182.31</ele>
        <time>2018-06-03T10:25:32Z</time>
      </trkpt>
      <trkpt lat="49.61218" lon="4.95679">
        <ele>183.27</ele>
        <time>2018-06-03T10:25:48Z</time>
      </trkpt>
      <trkpt lat="49.61237" lon="4.9569">
        <ele>180.38</ele>
        <time>2018-06-03T10:26:05Z</time>
      </trkpt>
      <trkpt lat="49.61252" lon="4.95703">
        <ele>177.5</ele>
        <time>2018-06-03T10:26:20Z</time>
      </trkpt>
      <trkpt lat="49.61253" lon="4.95703">
        <ele>177.5</ele>
        <time>2018-06-03T10:26:21Z</time>
      </trkpt>
      <trkpt lat="49.61272" lon="4.95717">
        <ele>171.73</ele>
        <time>2018-06-03T10:26:40Z</time>
      </trkpt>
      <trkpt lat="49.61292" lon="4.95736">
        <ele>171.25</ele>
        <time>2018-06-03T10:26:59Z</time>
      </trkpt>
      <trkpt lat="49.61314" lon="4.95753">
        <ele>177.5</ele>
        <time>2018-06-03T10:27:17Z</time>
      </trkpt>
      <trkpt lat="49.61329" lon="4.95769">
        <ele>175.58</ele>
        <time>2018-06-03T10:27:34Z</time>
      </trkpt>
      <trkpt lat="49.61346" lon="4.95793">
        <ele>172.21</ele>
        <time>2018-06-03T10:27:54Z</time>
      </trkpt>
      <trkpt lat="49.61353" lon="4.958">
        <ele>168.85</ele>
        <time>2018-06-03T10:28:03Z</time>
      </trkpt>
      <trkpt lat="49.61372" lon="4.95822">
        <ele>165</ele>
        <time>2018-06-03T10:28:25Z</time>
      </trkpt>
      <trkpt lat="49.61393" lon="4.95849">
        <ele>164.04</ele>
        <time>2018-06-03T10:28:46Z</time>
      </trkpt>
      <trkpt lat="49.61398" lon="4.95856">
        <ele>166.45</ele>
        <time>2018-06-03T10:29:01Z</time>
      </trkpt>
      <trkpt lat="49.61409" lon="4.95869">
        <ele>167.41</ele>
        <time>2018-06-03T10:29:18Z</time>
      </trkpt>
      <trkpt lat="49.61422" lon="4.95888">
        <ele>167.41</ele>
        <time>2018-06-03T10:29:39Z</time>
      </trkpt>
      <trkpt lat="49.61429" lon="4.95901">
        <ele>170.29</ele>
        <time>2018-06-03T10:30:02Z</time>
      </trkpt>
      <trkpt lat="49.61443" lon="4.95924">
        <ele>174.14</ele>
        <time>2018-06-03T10:30:19Z</time>
      </trkpt>
      <trkpt lat="49.61458" lon="4.95951">
        <ele>175.58</ele>
        <time>2018-06-03T10:30:36Z</time>
      </trkpt>
      <trkpt lat="49.61477" lon="4.9597">
        <ele>176.54</ele>
        <time>2018-06-03T10:30:54Z</time>
      </trkpt>
      <trkpt lat="49.61494" lon="4.95988">
        <ele>181.83</ele>
        <time>2018-06-03T10:31:13Z</time>
      </trkpt>
      <trkpt lat="49.61514" lon="4.95992">
        <ele>179.9</ele>
        <time>2018-06-03T10:31:31Z</time>
      </trkpt>
      <trkpt lat="49.61541" lon="4.96">
        <ele>173.66</ele>
        <time>2018-06-03T10:31:52Z</time>
      </trkpt>
      <trkpt lat="49.61561" lon="4.96012">
        <ele>173.66</ele>
        <time>2018-06-03T10:32:12Z</time>
      </trkpt>
      <trkpt lat="49.61583" lon="4.96015">
        <ele>173.66</ele>
        <time>2018-06-03T10:32:34Z</time>
      </trkpt>
      <trkpt lat="49.61597" lon="4.96022">
        <ele>173.17</ele>
        <time>2018-06-03T10:32:53Z</time>
      </trkpt>
      <trkpt lat="49.61613" lon="4.96032">
        <ele>173.66</ele>
        <time>2018-06-03T10:33:15Z</time>
      </trkpt>
      <trkpt lat="49.61637" lon="4.96041">
        <ele>175.1</ele>
        <time>2018-06-03T10:33:35Z</time>
      </trkpt>
      <trkpt lat="49.6165" lon="4.96046">
        <ele>179.9</ele>
        <time>2018-06-03T10:33:55Z</time>
      </trkpt>
      <trkpt lat="49.61677" lon="4.96036">
        <ele>178.46</ele>
        <time>2018-06-03T10:34:16Z</time>
      </trkpt>
      <trkpt lat="49.61699" lon="4.96037">
        <ele>178.46</ele>
        <time>2018-06-03T10:34:38Z</time>
      </trkpt>
      <trkpt lat="49.61725" lon="4.96044">
        <ele>179.42</ele>
        <time>2018-06-03T10:35:00Z</time>
      </trkpt>
      <trkpt lat="49.61742" lon="4.96063">
        <ele>180.87</ele>
        <time>2018-06-03T10:35:20Z</time>
      </trkpt>
      <trkpt lat="49.61762" lon="4.96069">
        <ele>180.38</ele>
        <time>2018-06-03T10:35:38Z</time>
      </trkpt>
      <trkpt lat="49.6178" lon="4.96076">
        <ele>179.42</ele>
        <time>2018-06-03T10:35:56Z</time>
      </trkpt>
      <trkpt lat="49.618" lon="4.96081">
        <ele>181.35</ele>
        <time>2018-06-03T10:36:14Z</time>
      </trkpt>
      <trkpt lat="49.61815" lon="4.96086">
        <ele>179.9</ele>
        <time>2018-06-03T10:36:31Z</time>
      </trkpt>
      <trkpt lat="49.61828" lon="4.96088">
        <ele>178.46</ele>
        <time>2018-06-03T10:36:47Z</time>
      </trkpt>
      <trkpt lat="49.61848" lon="4.96099">
        <ele>176.54</ele>
        <time>2018-06-03T10:37:05Z</time>
      </trkpt>
      <trkpt lat="49.61869" lon="4.96106">
        <ele>173.17</ele>
        <time>2018-06-03T10:37:23Z</time>
      </trkpt>
      <trkpt lat="49.6189" lon="4.96113">
        <ele>171.25</ele>
        <time>2018-06-03T10:37:42Z</time>
      </trkpt>
      <trkpt lat="49.619" lon="4.96116">
        <ele>170.29</ele>
        <time>2018-06-03T10:37:51Z</time>
      </trkpt>
      <trkpt lat="49.6192" lon="4.96119">
        <ele>168.37</ele>
        <time>2018-06-03T10:38:06Z</time>
      </trkpt>
      <trkpt lat="49.6194" lon="4.96121">
        <ele>169.81</ele>
        <time>2018-06-03T10:38:24Z</time>
      </trkpt>
      <trkpt lat="49.6195" lon="4.96121">
        <ele>170.77</ele>
        <time>2018-06-03T10:38:37Z</time>
      </trkpt>
      <trkpt lat="49.61969" lon="4.96123">
        <ele>165.48</ele>
        <time>2018-06-03T10:38:56Z</time>
      </trkpt>
      <trkpt lat="49.61988" lon="4.96134">
        <ele>164.52</ele>
        <time>2018-06-03T10:39:11Z</time>
      </trkpt>
      <trkpt lat="49.61994" lon="4.96131">
        <ele>170.29</ele>
        <time>2018-06-03T10:39:24Z</time>
      </trkpt>
      <trkpt lat="49.61997" lon="4.96129">
        <ele>170.29</ele>
        <time>2018-06-03T10:39:27Z</time>
      </trkpt>
      <trkpt lat="49.62003" lon="4.96129">
        <ele>169.81</ele>
        <time>2018-06-03T10:39:32Z</time>
      </trkpt>
      <trkpt lat="49.62027" lon="4.9614">
        <ele>168.37</ele>
        <time>2018-06-03T10:39:50Z</time>
      </trkpt>
      <trkpt lat="49.62047" lon="4.96147">
        <ele>169.81</ele>
        <time>2018-06-03T10:40:07Z</time>
      </trkpt>
      <trkpt lat="49.62066" lon="4.96153">
        <ele>170.77</ele>
        <time>2018-06-03T10:40:24Z</time>
      </trkpt>
      <trkpt lat="49.62092" lon="4.96157">
        <ele>173.17</ele>
        <time>2018-06-03T10:40:45Z</time>
      </trkpt>
      <trkpt lat="49.62116" lon="4.96164">
        <ele>171.25</ele>
        <time>2018-06-03T10:41:05Z</time>
      </trkpt>
      <trkpt lat="49.62131" lon="4.96167">
        <ele>167.89</ele>
        <time>2018-06-03T10:41:21Z</time>
      </trkpt>
      <trkpt lat="49.62137" lon="4.96169">
        <ele>169.33</ele>
        <time>2018-06-03T10:41:39Z</time>
      </trkpt>
      <trkpt lat="49.62153" lon="4.96178">
        <ele>169.33</ele>
        <time>2018-06-03T10:41:56Z</time>
      </trkpt>
      <trkpt lat="49.62175" lon="4.96182">
        <ele>173.17</ele>
        <time>2018-06-03T10:42:15Z</time>
      </trkpt>
      <trkpt lat="49.62195" lon="4.96178">
        <ele>173.17</ele>
        <time>2018-06-03T10:42:34Z</time>
      </trkpt>
      <trkpt lat="49.62217" lon="4.96185">
        <ele>173.66</ele>
        <time>2018-06-03T10:42:51Z</time>
      </trkpt>
      <trkpt lat="49.62223" lon="4.96187">
        <ele>175.58</ele>
        <time>2018-06-03T10:43:08Z</time>
      </trkpt>
      <trkpt lat="49.62251" lon="4.96196">
        <ele>172.69</ele>
        <time>2018-06-03T10:43:27Z</time>
      </trkpt>
      <trkpt lat="49.62264" lon="4.96198">
        <ele>174.14</ele>
        <time>2018-06-03T10:43:42Z</time>
      </trkpt>
      <trkpt lat="49.62276" lon="4.962">
        <ele>176.54</ele>
        <time>2018-06-03T10:43:59Z</time>
      </trkpt>
      <trkpt lat="49.6228" lon="4.96201">
        <ele>179.42</ele>
        <time>2018-06-03T10:44:15Z</time>
      </trkpt>
      <trkpt lat="49.62305" lon="4.96213">
        <ele>176.06</ele>
        <time>2018-06-03T10:44:34Z</time>
      </trkpt>
      <trkpt lat="49.62326" lon="4.96216">
        <ele>177.02</ele>
        <time>2018-06-03T10:44:53Z</time>
      </trkpt>
      <trkpt lat="49.62338" lon="4.96218">
        <ele>178.46</ele>
        <time>2018-06-03T10:45:07Z</time>
      </trkpt>
      <trkpt lat="49.6236" lon="4.96226">
        <ele>178.94</ele>
        <time>2018-06-03T10:45:26Z</time>
      </trkpt>
      <trkpt lat="49.62384" lon="4.96235">
        <ele>175.58</ele>
        <time>2018-06-03T10:45:46Z</time>
      </trkpt>
      <trkpt lat="49.62405" lon="4.96242">
        <ele>177.5</ele>
        <time>2018-06-03T10:46:05Z</time>
      </trkpt>
      <trkpt lat="49.62411" lon="4.96243">
        <ele>177.98</ele>
        <time>2018-06-03T10:46:17Z</time>
      </trkpt>
      <trkpt lat="49.62416" lon="4.96245">
        <ele>178.46</ele>
        <time>2018-06-03T10:46:31Z</time>
      </trkpt>
      <trkpt lat="49.62432" lon="4.96259">
        <ele>174.14</ele>
        <time>2018-06-03T10:46:50Z</time>
      </trkpt>
      <trkpt lat="49.62443" lon="4.96264">
        <ele>175.58</ele>
        <time>2018-06-03T10:47:04Z</time>
      </trkpt>
      <trkpt lat="49.62445" lon="4.96263">
        <ele>175.58</ele>
        <time>2018-06-03T10:47:08Z</time>
      </trkpt>
      <trkpt lat="49.62456" lon="4.96263">
        <ele>177.98</ele>
        <time>2018-06-03T10:47:23Z</time>
      </trkpt>
      <trkpt lat="49.6246" lon="4.96265">
        <ele>178.94</ele>
        <time>2018-06-03T10:47:38Z</time>
      </trkpt>
      <trkpt lat="49.62466" lon="4.96268">
        <ele>179.42</ele>
        <time>2018-06-03T10:47:52Z</time>
      </trkpt>
      <trkpt lat="49.62471" lon="4.96272">
        <ele>179.9</ele>
        <time>2018-06-03T10:48:05Z</time>
      </trkpt>
      <trkpt lat="49.62475" lon="4.96277">
        <ele>178.46</ele>
        <time>2018-06-03T10:48:21Z</time>
      </trkpt>
      <trkpt lat="49.62481" lon="4.96286">
        <ele>173.66</ele>
        <time>2018-06-03T10:48:42Z</time>
      </trkpt>
      <trkpt lat="49.62486" lon="4.96293">
        <ele>171.25</ele>
        <time>2018-06-03T10:49:00Z</time>
      </trkpt>
      <trkpt lat="49.625" lon="4.96306">
        <ele>165</ele>
        <time>2018-06-03T10:49:18Z</time>
      </trkpt>
      <trkpt lat="49.62523" lon="4.96322">
        <ele>159.72</ele>
        <time>2018-06-03T10:49:30Z</time>
      </trkpt>
      <trkpt lat="49.62572" lon="4.9634">
        <ele>166.93</ele>
        <time>2018-06-03T10:49:51Z</time>
      </trkpt>
      <trkpt lat="49.62599" lon="4.96352">
        <ele>168.85</ele>
        <time>2018-06-03T10:50:10Z</time>
      </trkpt>
      <trkpt lat="49.62607" lon="4.96352">
        <ele>170.29</ele>
        <time>2018-06-03T10:50:25Z</time>
      </trkpt>
      <trkpt lat="49.62626" lon="4.96361">
        <ele>170.77</ele>
        <time>2018-06-03T10:50:44Z</time>
      </trkpt>
      <trkpt lat="49.62651" lon="4.96371">
        <ele>170.77</ele>
        <time>2018-06-03T10:51:05Z</time>
      </trkpt>
      <trkpt lat="49.62671" lon="4.96384">
        <ele>170.77</ele>
        <time>2018-06-03T10:51:25Z</time>
      </trkpt>
      <trkpt lat="49.62698" lon="4.96402">
        <ele>170.29</ele>
        <time>2018-06-03T10:51:47Z</time>
      </trkpt>
      <trkpt lat="49.62715" lon="4.96411">
        <ele>169.81</ele>
        <time>2018-06-03T10:52:08Z</time>
      </trkpt>
      <trkpt lat="49.62737" lon="4.96422">
        <ele>165.96</ele>
        <time>2018-06-03T10:52:27Z</time>
      </trkpt>
      <trkpt lat="49.62758" lon="4.96435">
        <ele>164.52</ele>
        <time>2018-06-03T10:52:45Z</time>
      </trkpt>
      <trkpt lat="49.62773" lon="4.96444">
        <ele>165.96</ele>
        <time>2018-06-03T10:53:03Z</time>
      </trkpt>
      <trkpt lat="49.62793" lon="4.96455">
        <ele>167.41</ele>
        <time>2018-06-03T10:53:22Z</time>
      </trkpt>
      <trkpt lat="49.62824" lon="4.96471">
        <ele>170.29</ele>
        <time>2018-06-03T10:53:43Z</time>
      </trkpt>
      <trkpt lat="49.62831" lon="4.96477">
        <ele>170.29</ele>
        <time>2018-06-03T10:54:01Z</time>
      </trkpt>
      <trkpt lat="49.62848" lon="4.96488">
        <ele>169.33</ele>
        <time>2018-06-03T10:54:24Z</time>
      </trkpt>
      <trkpt lat="49.62882" lon="4.96513">
        <ele>172.21</ele>
        <time>2018-06-03T10:54:43Z</time>
      </trkpt>
      <trkpt lat="49.62908" lon="4.96522">
        <ele>173.66</ele>
        <time>2018-06-03T10:55:00Z</time>
      </trkpt>
      <trkpt lat="49.62925" lon="4.96533">
        <ele>169.81</ele>
        <time>2018-06-03T10:55:17Z</time>
      </trkpt>
      <trkpt lat="49.6294" lon="4.96546">
        <ele>165.96</ele>
        <time>2018-06-03T10:55:38Z</time>
      </trkpt>
      <trkpt lat="49.62949" lon="4.96558">
        <ele>164.04</ele>
        <time>2018-06-03T10:55:57Z</time>
      </trkpt>
      <trkpt lat="49.62955" lon="4.96566">
        <ele>164.04</ele>
        <time>2018-06-03T10:56:17Z</time>
      </trkpt>
      <trkpt lat="49.6297" lon="4.96581">
        <ele>163.08</ele>
        <time>2018-06-03T10:56:37Z</time>
      </trkpt>
      <trkpt lat="49.63011" lon="4.96608">
        <ele>164.52</ele>
        <time>2018-06-03T10:56:57Z</time>
      </trkpt>
      <trkpt lat="49.63034" lon="4.96624">
        <ele>165.48</ele>
        <time>2018-06-03T10:57:16Z</time>
      </trkpt>
      <trkpt lat="49.63054" lon="4.96642">
        <ele>163.08</ele>
        <time>2018-06-03T10:57:36Z</time>
      </trkpt>
      <trkpt lat="49.63071" lon="4.96656">
        <ele>162.6</ele>
        <time>2018-06-03T10:57:54Z</time>
      </trkpt>
      <trkpt lat="49.63093" lon="4.96679">
        <ele>162.6</ele>
        <time>2018-06-03T10:58:18Z</time>
      </trkpt>
      <trkpt lat="49.63114" lon="4.96699">
        <ele>165</ele>
        <time>2018-06-03T10:58:37Z</time>
      </trkpt>
      <trkpt lat="49.63131" lon="4.96711">
        <ele>165</ele>
        <time>2018-06-03T10:58:55Z</time>
      </trkpt>
      <trkpt lat="49.63139" lon="4.96717">
        <ele>166.45</ele>
        <time>2018-06-03T10:59:17Z</time>
      </trkpt>
      <trkpt lat="49.6315" lon="4.96728">
        <ele>165.96</ele>
        <time>2018-06-03T10:59:37Z</time>
      </trkpt>
      <trkpt lat="49.6316" lon="4.96735">
        <ele>165.48</ele>
        <time>2018-06-03T10:59:55Z</time>
      </trkpt>
      <trkpt lat="49.63177" lon="4.96754">
        <ele>165.48</ele>
        <time>2018-06-03T11:00:15Z</time>
      </trkpt>
      <trkpt lat="49.6319" lon="4.96768">
        <ele>165</ele>
        <time>2018-06-03T11:00:34Z</time>
      </trkpt>
      <trkpt lat="49.63198" lon="4.96778">
        <ele>167.41</ele>
        <time>2018-06-03T11:00:55Z</time>
      </trkpt>
      <trkpt lat="49.63206" lon="4.96789">
        <ele>166.45</ele>
        <time>2018-06-03T11:01:16Z</time>
      </trkpt>
      <trkpt lat="49.63227" lon="4.96821">
        <ele>163.56</ele>
        <time>2018-06-03T11:01:35Z</time>
      </trkpt>
      <trkpt lat="49.63239" lon="4.96834">
        <ele>164.52</ele>
        <time>2018-06-03T11:01:58Z</time>
      </trkpt>
      <trkpt lat="49.63258" lon="4.9687">
        <ele>163.08</ele>
        <time>2018-06-03T11:02:18Z</time>
      </trkpt>
      <trkpt lat="49.63265" lon="4.96885">
        <ele>164.52</ele>
        <time>2018-06-03T11:02:35Z</time>
      </trkpt>
      <trkpt lat="49.63269" lon="4.96894">
        <ele>164.04</ele>
        <time>2018-06-03T11:02:40Z</time>
      </trkpt>
      <trkpt lat="49.63275" lon="4.9693">
        <ele>161.16</ele>
        <time>2018-06-03T11:02:56Z</time>
      </trkpt>
      <trkpt lat="49.63283" lon="4.9696">
        <ele>159.24</ele>
        <time>2018-06-03T11:03:14Z</time>
      </trkpt>
      <trkpt lat="49.63284" lon="4.96975">
        <ele>158.27</ele>
        <time>2018-06-03T11:03:20Z</time>
      </trkpt>
      <trkpt lat="49.63293" lon="4.97005">
        <ele>157.79</ele>
        <time>2018-06-03T11:03:40Z</time>
      </trkpt>
      <trkpt lat="49.633" lon="4.9703">
        <ele>155.87</ele>
        <time>2018-06-03T11:03:58Z</time>
      </trkpt>
      <trkpt lat="49.63308" lon="4.97061">
        <ele>155.87</ele>
        <time>2018-06-03T11:04:17Z</time>
      </trkpt>
      <trkpt lat="49.63313" lon="4.97085">
        <ele>155.39</ele>
        <time>2018-06-03T11:04:34Z</time>
      </trkpt>
      <trkpt lat="49.63322" lon="4.97117">
        <ele>152.51</ele>
        <time>2018-06-03T11:04:53Z</time>
      </trkpt>
      <trkpt lat="49.63327" lon="4.97147">
        <ele>152.51</ele>
        <time>2018-06-03T11:05:12Z</time>
      </trkpt>
      <trkpt lat="49.63333" lon="4.97179">
        <ele>153.47</ele>
        <time>2018-06-03T11:05:30Z</time>
      </trkpt>
      <trkpt lat="49.63334" lon="4.97185">
        <ele>153.95</ele>
        <time>2018-06-03T11:05:48Z</time>
      </trkpt>
      <trkpt lat="49.63334" lon="4.97189">
        <ele>155.39</ele>
        <time>2018-06-03T11:06:09Z</time>
      </trkpt>
      <trkpt lat="49.63335" lon="4.97216">
        <ele>152.03</ele>
        <time>2018-06-03T11:06:25Z</time>
      </trkpt>
      <trkpt lat="49.6335" lon="4.97246">
        <ele>156.35</ele>
        <time>2018-06-03T11:06:39Z</time>
      </trkpt>
      <trkpt lat="49.63358" lon="4.97265">
        <ele>158.27</ele>
        <time>2018-06-03T11:06:55Z</time>
      </trkpt>
      <trkpt lat="49.6337" lon="4.97289">
        <ele>160.68</ele>
        <time>2018-06-03T11:07:14Z</time>
      </trkpt>
      <trkpt lat="49.63373" lon="4.97289">
        <ele>163.56</ele>
        <time>2018-06-03T11:07:37Z</time>
      </trkpt>
      <trkpt lat="49.63378" lon="4.97305">
        <ele>165.48</ele>
        <time>2018-06-03T11:08:02Z</time>
      </trkpt>
      <trkpt lat="49.63389" lon="4.97322">
        <ele>167.89</ele>
        <time>2018-06-03T11:08:17Z</time>
      </trkpt>
      <trkpt lat="49.63396" lon="4.97336">
        <ele>167.41</ele>
        <time>2018-06-03T11:08:35Z</time>
      </trkpt>
      <trkpt lat="49.63405" lon="4.97363">
        <ele>165.96</ele>
        <time>2018-06-03T11:08:54Z</time>
      </trkpt>
      <trkpt lat="49.63411" lon="4.97366">
        <ele>166.93</ele>
        <time>2018-06-03T11:09:18Z</time>
      </trkpt>
      <trkpt lat="49.63417" lon="4.9738">
        <ele>167.41</ele>
        <time>2018-06-03T11:09:36Z</time>
      </trkpt>
      <trkpt lat="49.63436" lon="4.97416">
        <ele>169.33</ele>
        <time>2018-06-03T11:09:53Z</time>
      </trkpt>
      <trkpt lat="49.63442" lon="4.97427">
        <ele>165.96</ele>
        <time>2018-06-03T11:10:06Z</time>
      </trkpt>
      <trkpt lat="49.63455" lon="4.97445">
        <ele>162.6</ele>
        <time>2018-06-03T11:10:24Z</time>
      </trkpt>
      <trkpt lat="49.63467" lon="4.97467">
        <ele>163.08</ele>
        <time>2018-06-03T11:10:42Z</time>
      </trkpt>
      <trkpt lat="49.63483" lon="4.97491">
        <ele>165.96</ele>
        <time>2018-06-03T11:10:57Z</time>
      </trkpt>
      <trkpt lat="49.63488" lon="4.97496">
        <ele>166.93</ele>
        <time>2018-06-03T11:11:02Z</time>
      </trkpt>
      <trkpt lat="49.63506" lon="4.97513">
        <ele>165.48</ele>
        <time>2018-06-03T11:11:20Z</time>
      </trkpt>
      <trkpt lat="49.63522" lon="4.97531">
        <ele>163.08</ele>
        <time>2018-06-03T11:11:38Z</time>
      </trkpt>
      <trkpt lat="49.63533" lon="4.9755">
        <ele>161.16</ele>
        <time>2018-06-03T11:11:53Z</time>
      </trkpt>
      <trkpt lat="49.63537" lon="4.97562">
        <ele>159.72</ele>
        <time>2018-06-03T11:12:06Z</time>
      </trkpt>
      <trkpt lat="49.6355" lon="4.97575">
        <ele>156.83</ele>
        <time>2018-06-03T11:12:24Z</time>
      </trkpt>
      <trkpt lat="49.63561" lon="4.97594">
        <ele>158.27</ele>
        <time>2018-06-03T11:12:37Z</time>
      </trkpt>
      <trkpt lat="49.63571" lon="4.97611">
        <ele>159.72</ele>
        <time>2018-06-03T11:12:51Z</time>
      </trkpt>
      <trkpt lat="49.63586" lon="4.9763">
        <ele>160.68</ele>
        <time>2018-06-03T11:13:08Z</time>
      </trkpt>
      <trkpt lat="49.63593" lon="4.97639">
        <ele>159.24</ele>
        <time>2018-06-03T11:13:21Z</time>
      </trkpt>
      <trkpt lat="49.63599" lon="4.97655">
        <ele>157.31</ele>
        <time>2018-06-03T11:13:35Z</time>
      </trkpt>
      <trkpt lat="49.63587" lon="4.97674">
        <ele>158.75</ele>
        <time>2018-06-03T11:13:53Z</time>
      </trkpt>
      <trkpt lat="49.6358" lon="4.97683">
        <ele>161.16</ele>
        <time>2018-06-03T11:14:03Z</time>
      </trkpt>
      <trkpt lat="49.63567" lon="4.97702">
        <ele>159.72</ele>
        <time>2018-06-03T11:14:24Z</time>
      </trkpt>
      <trkpt lat="49.63564" lon="4.9771">
        <ele>159.72</ele>
        <time>2018-06-03T11:14:31Z</time>
      </trkpt>
      <trkpt lat="49.63555" lon="4.97732">
        <ele>158.75</ele>
        <time>2018-06-03T11:14:48Z</time>
      </trkpt>
      <trkpt lat="49.63551" lon="4.97738">
        <ele>158.75</ele>
        <time>2018-06-03T11:14:52Z</time>
      </trkpt>
      <trkpt lat="49.63539" lon="4.97768">
        <ele>160.68</ele>
        <time>2018-06-03T11:15:10Z</time>
      </trkpt>
      <trkpt lat="49.63527" lon="4.97785">
        <ele>162.12</ele>
        <time>2018-06-03T11:15:26Z</time>
      </trkpt>
      <trkpt lat="49.63511" lon="4.97795">
        <ele>169.33</ele>
        <time>2018-06-03T11:15:43Z</time>
      </trkpt>
      <trkpt lat="49.63506" lon="4.97802">
        <ele>171.73</ele>
        <time>2018-06-03T11:15:48Z</time>
      </trkpt>
      <trkpt lat="49.63491" lon="4.97823">
        <ele>176.54</ele>
        <time>2018-06-03T11:16:09Z</time>
      </trkpt>
      <trkpt lat="49.63484" lon="4.97837">
        <ele>174.62</ele>
        <time>2018-06-03T11:16:24Z</time>
      </trkpt>
      <trkpt lat="49.63484" lon="4.97836">
        <ele>173.17</ele>
        <time>2018-06-03T11:16:39Z</time>
      </trkpt>
      <trkpt lat="49.63484" lon="4.97838">
        <ele>171.73</ele>
        <time>2018-06-03T11:16:59Z</time>
      </trkpt>
      <trkpt lat="49.63482" lon="4.97842">
        <ele>170.77</ele>
        <time>2018-06-03T11:17:14Z</time>
      </trkpt>
      <trkpt lat="49.63479" lon="4.97847">
        <ele>170.77</ele>
        <time>2018-06-03T11:17:20Z</time>
      </trkpt>
      <trkpt lat="49.63463" lon="4.97862">
        <ele>171.73</ele>
        <time>2018-06-03T11:17:37Z</time>
      </trkpt>
      <trkpt lat="49.63446" lon="4.97885">
        <ele>173.17</ele>
        <time>2018-06-03T11:17:56Z</time>
      </trkpt>
      <trkpt lat="49.6343" lon="4.979">
        <ele>173.66</ele>
        <time>2018-06-03T11:18:13Z</time>
      </trkpt>
      <trkpt lat="49.6341" lon="4.97913">
        <ele>175.58</ele>
        <time>2018-06-03T11:18:32Z</time>
      </trkpt>
      <trkpt lat="49.63392" lon="4.97927">
        <ele>175.1</ele>
        <time>2018-06-03T11:18:53Z</time>
      </trkpt>
      <trkpt lat="49.63387" lon="4.97939">
        <ele>174.14</ele>
        <time>2018-06-03T11:19:00Z</time>
      </trkpt>
      <trkpt lat="49.63388" lon="4.97949">
        <ele>173.66</ele>
        <time>2018-06-03T11:19:06Z</time>
      </trkpt>
      <trkpt lat="49.63398" lon="4.97976">
        <ele>172.69</ele>
        <time>2018-06-03T11:19:26Z</time>
      </trkpt>
      <trkpt lat="49.63407" lon="4.97995">
        <ele>172.69</ele>
        <time>2018-06-03T11:19:46Z</time>
      </trkpt>
      <trkpt lat="49.63412" lon="4.98007">
        <ele>173.17</ele>
        <time>2018-06-03T11:20:00Z</time>
      </trkpt>
      <trkpt lat="49.63424" lon="4.98026">
        <ele>173.17</ele>
        <time>2018-06-03T11:20:16Z</time>
      </trkpt>
      <trkpt lat="49.63429" lon="4.98035">
        <ele>175.1</ele>
        <time>2018-06-03T11:20:29Z</time>
      </trkpt>
      <trkpt lat="49.63434" lon="4.98031">
        <ele>178.46</ele>
        <time>2018-06-03T11:20:43Z</time>
      </trkpt>
      <trkpt lat="49.63435" lon="4.98029">
        <ele>177.5</ele>
        <time>2018-06-03T11:21:05Z</time>
      </trkpt>
      <trkpt lat="49.63436" lon="4.98029">
        <ele>177.98</ele>
        <time>2018-06-03T11:21:12Z</time>
      </trkpt>
      <trkpt lat="49.63445" lon="4.98037">
        <ele>180.38</ele>
        <time>2018-06-03T11:21:23Z</time>
      </trkpt>
      <trkpt lat="49.63447" lon="4.98039">
        <ele>181.35</ele>
        <time>2018-06-03T11:21:25Z</time>
      </trkpt>
      <trkpt lat="49.63449" lon="4.9804">
        <ele>181.35</ele>
        <time>2018-06-03T11:21:27Z</time>
      </trkpt>
    </trkseg>
  </trk>
</gpx>